PORTS® Data Listing: 8770613 Morgans Point, Barbours Cut, TX

CO-OPS RAW PORTS DATA

************************      PRELIMINARY DATA      ************************** 

     THIS RAW DATA HAS NOT BEEN SUBJECT TO THE NATIONAL OCEAN SERVICE'S        
     QUALITY CONTROL OR QUALITY ASSURANCE PROCEDURES AND DOES NOT MEET         
     THE CRITERIA AND STANDARDS OF OFFICIAL NATIONAL OCEAN SERVICE             
     DATA.  IT IS RELEASED FOR LIMITED PUBLIC USE AS PRELIMINARY DATA TO       
     BE USED ONLY WITH APPROPRIATE CAUTION.                                    

************************      PRELIMINARY DATA      ************************** 


       CD   -   Calendar date
       T    -   Time
       TZ   -   Timezone
       PW   -   Predicted water level (feet above MLLW)
       OW   -   Observed water level (feet above MLLW)
       WS   -   Wind speed (knots)
       WD   -   Wind direction (degrees true)
       WG   -   Wind gust (knots)
       AT   -   Air temperature (degrees farenheit)
       WT   -   Water temperature (degrees farenheit)
       AP   -   Air pressure (millibars)
       SA   -   Salinty (PSU - Practical Salinity Units)
       SG   -   Specific gravity
       RH   -   Relative humidity
       AG   -   Air gap (feet)
       VI   -   Visibility (nautical miles)

       ** NOTE **
       A variable that has its data fields filled with "9"s, indicates that
       data was not collected for that sample period.
       **********


STATION NAME: Morgans Point (8770613)
****************************************************************************************************
    CD       T    TZ    PW     OW    WS   WD   WG    AT    WT    AP    SA    SG     RH    AG   VI
****************************************************************************************************
2019/11/11 15:30 CST    0.49   1.01    3  158    3  71.2  65.5 1014.9  9.3  1.006 -99.9 -99.99 -9.99
2019/11/11 15:36 CST    0.50   0.99    2  165    3  71.2  65.5 1015.0  9.4  1.007 -99.9 -99.99 -9.99
2019/11/11 15:42 CST    0.52   1.02    3  148    4  71.4  65.5 1014.7  9.3  1.006 -99.9 -99.99 -9.99
2019/11/11 15:48 CST    0.54   1.09    2  174    4  71.1  65.5 1014.8  9.3  1.006 -99.9 -99.99 -9.99
2019/11/11 15:54 CST    0.56   1.13    4  162    4  70.9  65.5 1014.9  9.5  1.007 -99.9 -99.99 -9.99
2019/11/11 16:00 CST    0.58   1.11    3  153    5  70.7  65.3 1015.0  9.5  1.007 -99.9 -99.99 -9.99
2019/11/11 16:06 CST    0.60   1.22    4  167    5  70.3  65.5 1015.0  9.3  1.006 -99.9 -99.99 -9.99
2019/11/11 16:12 CST    0.62   1.20 -999 -999 -999 -99.9 -99.9 -999.9 -9.9 -9.999 -99.9 -99.99 -9.99
2019/11/11 16:18 CST    0.64   1.23    2  108    2  70.2  65.5 1014.9  9.9  1.007 -99.9 -99.99 -9.99
2019/11/11 16:24 CST    0.66   1.16    2  128    3  69.8  65.5 1014.8 10.5  1.007 -99.9 -99.99 -9.99
2019/11/11 16:30 CST    0.68   1.36    2  132    3  69.6  65.3 1015.0  9.9  1.007 -99.9 -99.99 -9.99
2019/11/11 16:36 CST    0.70   1.11    2  137    2  69.6  65.3 1015.1  9.9  1.007 -99.9 -99.99 -9.99
2019/11/11 16:42 CST    0.72   1.35    2  147    2  69.6  65.3 1015.0  9.9  1.007 -99.9 -99.99 -9.99
2019/11/11 16:48 CST    0.74   1.17    2  126    2  69.8  65.3 1015.1  9.9  1.007 -99.9 -99.99 -9.99
2019/11/11 16:54 CST    0.76   1.32    2  137    2  69.6  65.3 1015.1 10.0  1.007 -99.9 -99.99 -9.99
2019/11/11 17:00 CST    0.78   1.27    4  156    4  69.4  65.3 1015.2  9.9  1.007 -99.9 -99.99 -9.99
2019/11/11 17:06 CST    0.81   1.42    3  170    5  69.3  65.3 1015.4  9.9  1.007 -99.9 -99.99 -9.99
2019/11/11 17:12 CST    0.83   1.45   20  306   27  66.0  65.3 1016.2  9.8  1.007 -99.9 -99.99 -9.99
2019/11/11 17:18 CST    0.85   1.55   29  319   32  62.1  65.5 1016.7  9.9  1.007 -99.9 -99.99 -9.99
2019/11/11 17:24 CST    0.87   1.51   25  314   30  60.8  65.5 1017.0  9.6  1.007 -99.9 -99.99 -9.99
2019/11/11 17:30 CST    0.90   1.51   20  315   27  59.9  65.5 1017.3  9.6  1.007 -99.9 -99.99 -9.99
2019/11/11 17:36 CST    0.92   1.54   21  313   28  59.2  65.5 1017.5  9.6  1.007 -99.9 -99.99 -9.99
2019/11/11 17:42 CST    0.94   1.40   25  321   30  58.5  65.3 1017.7  9.7  1.007 -99.9 -99.99 -9.99
2019/11/11 17:48 CST    0.96   1.54   19  326   30  58.3  65.3 1018.1  9.8  1.007 -99.9 -99.99 -9.99
2019/11/11 17:54 CST    0.99   1.52   21  323   30  57.6  65.3 1018.2  9.8  1.007 -99.9 -99.99 -9.99
2019/11/11 18:00 CST    1.01   1.37   23  326   28  57.2  65.3 1018.3 10.1  1.007 -99.9 -99.99 -9.99
2019/11/11 18:06 CST    1.03   1.38   21  322   28  57.0  65.1 1018.6 10.3  1.007 -99.9 -99.99 -9.99
2019/11/11 18:12 CST    1.05   1.26   24  323   30  56.7  65.1 1018.7 10.2  1.007 -99.9 -99.99 -9.99
2019/11/11 18:18 CST    1.07   1.08   22  334   30  56.3  65.1 1018.9 10.2  1.007 -99.9 -99.99 -9.99
2019/11/11 18:24 CST    1.09   1.26   22  325   28  55.6  65.1 1019.0 10.3  1.007 -99.9 -99.99 -9.99
2019/11/11 18:30 CST    1.11   1.18   24  318   27  54.9  65.1 1019.0 10.3  1.007 -99.9 -99.99 -9.99
2019/11/11 18:36 CST    1.13   1.18   21  323   28  54.7  65.1 1019.4 10.3  1.007 -99.9 -99.99 -9.99
2019/11/11 18:42 CST    1.14   1.22   22  322   27  54.0  65.1 1019.6 10.4  1.007 -99.9 -99.99 -9.99
2019/11/11 18:48 CST    1.16   1.19   21  329   28  54.0  65.1 1019.8 10.1  1.007 -99.9 -99.99 -9.99
2019/11/11 18:54 CST    1.18   1.23   23  336   28  53.6  65.1 1020.0  9.9  1.007 -99.9 -99.99 -9.99
2019/11/11 19:00 CST    1.19   1.19   26  325   31  52.7  65.1 1020.2  9.9  1.007 -99.9 -99.99 -9.99
2019/11/11 19:06 CST    1.21   1.10   20  328   28  52.9  65.1 1020.3  9.7  1.007 -99.9 -99.99 -9.99
2019/11/11 19:12 CST    1.22   1.13   23  329   30  52.0  65.1 1020.5  9.5  1.007 -99.9 -99.99 -9.99
2019/11/11 19:18 CST    1.24   1.15   22  325   28  51.6  65.1 1020.7  9.3  1.007 -99.9 -99.99 -9.99
2019/11/11 19:24 CST    1.25   1.20   23  327   29  50.5  64.9 1020.9  9.4  1.007 -99.9 -99.99 -9.99
2019/11/11 19:30 CST    1.26   1.24   24  325   32  50.2  64.9 1021.0  9.3  1.007 -99.9 -99.99 -9.99
2019/11/11 19:36 CST    1.27   1.21   22  331   34  49.8  64.9 1021.0  9.3  1.006 -99.9 -99.99 -9.99
2019/11/11 19:42 CST    1.29   1.28   26  323   32  49.3  64.9 1021.1  9.3  1.007 -99.9 -99.99 -9.99
2019/11/11 19:48 CST    1.30   1.33   19  326   29  49.6  64.9 1021.4  9.3  1.006 -99.9 -99.99 -9.99
2019/11/11 19:54 CST    1.31   1.40   19  330   27  50.0  64.9 1021.6  9.3  1.007 -99.9 -99.99 -9.99
2019/11/11 20:00 CST    1.32   1.33   19  331   29  49.6  64.9 1021.7  9.3  1.007 -99.9 -99.99 -9.99
2019/11/11 20:06 CST    1.33   1.37   21  337   33  49.6  64.8 1021.9  9.4  1.007 -99.9 -99.99 -9.99
2019/11/11 20:12 CST    1.34   1.35   20  330   31  49.5  64.8 1021.9  9.4  1.007 -99.9 -99.99 -9.99
2019/11/11 20:18 CST    1.34   1.30   22  335   29  49.1  64.8 1021.9  9.3  1.007 -99.9 -99.99 -9.99
2019/11/11 20:24 CST    1.35   1.31   21  327   30  48.9  64.8 1022.1  9.3  1.007 -99.9 -99.99 -9.99
2019/11/11 20:30 CST    1.36   1.23   22  325   31  48.9  64.8 1022.3  9.2  1.006 -99.9 -99.99 -9.99
2019/11/11 20:36 CST    1.37   1.21   22  341   29  48.9  64.6 1022.5  9.3  1.007 -99.9 -99.99 -9.99
2019/11/11 20:42 CST    1.37   1.21   24  341   32  48.7  64.6 1022.7  9.3  1.007 -99.9 -99.99 -9.99
2019/11/11 20:48 CST    1.38   1.19   26  337   37  48.0  64.6 1022.8  9.3  1.007 -99.9 -99.99 -9.99
2019/11/11 20:54 CST    1.38   1.08   25  353   36  47.8  64.6 1022.8  9.4  1.007 -99.9 -99.99 -9.99
2019/11/11 21:00 CST    1.39   1.07   21  350   30  47.8  64.6 1023.1  9.5  1.007 -99.9 -99.99 -9.99
2019/11/11 21:06 CST    1.39   1.09   22  335   31  47.8  64.4 1023.3  9.4  1.007 -99.9 -99.99 -9.99
2019/11/11 21:12 CST    1.40   1.06   18  329   27  47.7  64.4 1023.3  9.4  1.007 -99.9 -99.99 -9.99
2019/11/11 21:18 CST    1.40   1.07   21  340   30  47.1  64.4 1023.6  9.4  1.007 -99.9 -99.99 -9.99
2019/11/11 21:24 CST    1.40   1.02   20  343   33  47.3  64.2 1023.6  9.3  1.007 -99.9 -99.99 -9.99
2019/11/11 21:30 CST    1.40   0.98   24  343   28  46.6  64.2 1023.8  9.3  1.007 -99.9 -99.99 -9.99
2019/11/11 21:36 CST    1.40   0.92   24  337   30  46.6  64.2 1023.9  9.3  1.007 -99.9 -99.99 -9.99
2019/11/11 21:42 CST    1.40   0.88   19  329   28  46.6  64.0 1024.1  9.2  1.007 -99.9 -99.99 -9.99
2019/11/11 21:48 CST    1.40   0.88   21  324   27  45.5  64.2 1024.3  9.1  1.006 -99.9 -99.99 -9.99
2019/11/11 21:54 CST    1.40   0.92   24  323   27  45.1  64.2 1024.5  9.2  1.007 -99.9 -99.99 -9.99
2019/11/11 22:00 CST    1.40   0.84   19  325   28  45.7  64.2 1024.5  9.1  1.006 -99.9 -99.99 -9.99
2019/11/11 22:06 CST    1.40   0.75   21  331   28  45.9  64.2 1024.4  9.1  1.006 -99.9 -99.99 -9.99
2019/11/11 22:12 CST    1.40   0.69   21  341   28  45.9  64.2 1024.3  9.0  1.006 -99.9 -99.99 -9.99
2019/11/11 22:18 CST    1.40   0.69   24  340   32  45.7  64.2 1024.4  8.9  1.006 -99.9 -99.99 -9.99
2019/11/11 22:24 CST    1.40   0.73   20  337   27  45.5  64.2 1024.5  8.9  1.006 -99.9 -99.99 -9.99
2019/11/11 22:30 CST    1.39   0.71   24  336   32  45.5  64.0 1024.5  9.0  1.006 -99.9 -99.99 -9.99
2019/11/11 22:36 CST    1.39   0.70   25  338   32  45.3  64.0 1024.5  9.0  1.006 -99.9 -99.99 -9.99
2019/11/11 22:42 CST    1.39   0.57   22  343   26  45.0  64.0 1024.5  9.0  1.006 -99.9 -99.99 -9.99
2019/11/11 22:48 CST    1.38   0.63   21  339   28  45.1  64.0 1024.6  8.9  1.006 -99.9 -99.99 -9.99
2019/11/11 22:54 CST    1.38   0.60   22  332   28  45.3  64.0 1024.4  8.9  1.006 -99.9 -99.99 -9.99
2019/11/11 23:00 CST    1.38   0.61   24  341   30  44.8  64.0 1024.5  8.9  1.006 -99.9 -99.99 -9.99
2019/11/11 23:06 CST    1.37   0.58   28  349   34  43.9  64.0 1024.4  9.0  1.006 -99.9 -99.99 -9.99
2019/11/11 23:12 CST    1.37   0.52   26  350   33  43.9  63.9 1024.5  9.0  1.006 -99.9 -99.99 -9.99
2019/11/11 23:18 CST    1.36   0.52   20  339   30  44.6  63.9 1024.7  9.0  1.006 -99.9 -99.99 -9.99
2019/11/11 23:24 CST    1.36   0.53   23  330   26  44.2  63.9 1024.8  9.0  1.006 -99.9 -99.99 -9.99
2019/11/11 23:30 CST    1.36   0.51   23  344   30  44.2  63.9 1024.9  9.0  1.006 -99.9 -99.99 -9.99
2019/11/11 23:36 CST    1.35   0.49   19  341   30  43.9  63.9 1024.8  9.0  1.006 -99.9 -99.99 -9.99
2019/11/11 23:42 CST    1.35   0.44   25  347   31  43.3  63.7 1024.8  8.9  1.006 -99.9 -99.99 -9.99
2019/11/11 23:48 CST    1.34   0.40   23  358   29  43.2  63.7 1024.6  8.9  1.006 -99.9 -99.99 -9.99
2019/11/11 23:54 CST    1.34   0.36   21  349   27  43.3  63.7 1024.9  8.9  1.006 -99.9 -99.99 -9.99
2019/11/12 00:00 CST    1.33   0.43   23  332   31  43.3  63.5 1025.0  9.0  1.006 -99.9 -99.99 -9.99
2019/11/12 00:06 CST    1.33   0.42   20  342   31  43.3  63.5 1025.2  9.0  1.006 -99.9 -99.99 -9.99
2019/11/12 00:12 CST    1.32   0.42   22  335   30  43.0  63.5 1025.1  8.9  1.006 -99.9 -99.99 -9.99
2019/11/12 00:18 CST    1.32   0.37   22  339   29  42.6  63.5 1025.2  8.9  1.006 -99.9 -99.99 -9.99
2019/11/12 00:24 CST    1.31   0.30   19  343   30  42.8  63.5 1025.0  8.8  1.006 -99.9 -99.99 -9.99
2019/11/12 00:30 CST    1.31   0.34   20  347   27  42.4  63.5 1025.0  8.8  1.006 -99.9 -99.99 -9.99
2019/11/12 00:36 CST    1.30   0.28   26  336   31  42.1  63.5 1025.3  8.8  1.006 -99.9 -99.99 -9.99
2019/11/12 00:42 CST    1.30   0.21   20  340   29  42.4  63.3 1025.4  8.7  1.006 -99.9 -99.99 -9.99
2019/11/12 00:48 CST    1.29   0.30   20  344   29  41.7  63.3 1025.4  8.7  1.006 -99.9 -99.99 -9.99
2019/11/12 00:54 CST    1.29   0.28   23  338   28  41.7  63.3 1025.4  8.6  1.006 -99.9 -99.99 -9.99
2019/11/12 01:00 CST    1.28   0.22   22  348   28  41.2  63.3 1025.4  8.5  1.006 -99.9 -99.99 -9.99
2019/11/12 01:06 CST    1.28   0.16   20  354   30  41.4  63.3 1025.4  8.5  1.006 -99.9 -99.99 -9.99
2019/11/12 01:12 CST    1.27   0.04   17  339   30  42.1  63.3 1025.6  8.5  1.006 -99.9 -99.99 -9.99
2019/11/12 01:18 CST    1.27   0.05   19  342   28  41.9  63.3 1026.0  8.4  1.006 -99.9 -99.99 -9.99
2019/11/12 01:24 CST    1.27  -0.13   16  342   24  41.7  63.1 1026.0  8.5  1.006 -99.9 -99.99 -9.99
2019/11/12 01:30 CST    1.26  -0.04   23  347   27  40.6  63.1 1026.0  8.5  1.006 -99.9 -99.99 -9.99
2019/11/12 01:36 CST    1.26  -0.05   19  337   27  40.8  63.1 1026.0  8.4  1.006 -99.9 -99.99 -9.99
2019/11/12 01:42 CST    1.26  -0.06   18  341   24  41.2  63.0 1025.9  8.5  1.006 -99.9 -99.99 -9.99
2019/11/12 01:48 CST    1.25  -0.09   21  344   27  40.8  63.0 1025.9  8.4  1.006 -99.9 -99.99 -9.99
2019/11/12 01:54 CST    1.25  -0.14   19  337   25  41.0  62.8 1026.2  8.5  1.006 -99.9 -99.99 -9.99
2019/11/12 02:00 CST    1.25  -0.14   20  341   26  40.6  62.6 1026.2  8.4  1.006 -99.9 -99.99 -9.99
2019/11/12 02:06 CST    1.25  -0.15   18  355   26  40.6  62.6 1026.2  8.6  1.006 -99.9 -99.99 -9.99
2019/11/12 02:12 CST    1.25  -0.17   19  335   24  40.3  62.8 1026.2  8.5  1.006 -99.9 -99.99 -9.99
2019/11/12 02:18 CST    1.25  -0.20   23  352   27  40.1  63.0 1026.4  8.6  1.006 -99.9 -99.99 -9.99
2019/11/12 02:24 CST    1.25  -0.21   20  347   25  40.3  63.0 1026.8  8.6  1.006 -99.9 -99.99 -9.99
2019/11/12 02:30 CST    1.25  -0.20   22  356   27  40.3  63.0 1026.9  8.7  1.006 -99.9 -99.99 -9.99
2019/11/12 02:36 CST    1.25  -0.19   24  348   27  39.9  63.0 1027.2  8.7  1.006 -99.9 -99.99 -9.99
2019/11/12 02:42 CST    1.25  -0.21   23  357   29  39.9  63.0 1027.3  8.7  1.006 -99.9 -99.99 -9.99
2019/11/12 02:48 CST    1.25  -0.28   24  354   30  39.9  63.0 1027.4  8.7  1.006 -99.9 -99.99 -9.99
2019/11/12 02:54 CST    1.25  -0.33   23  357   30  39.9  63.0 1027.3  8.5  1.006 -99.9 -99.99 -9.99
2019/11/12 03:00 CST    1.25  -0.33   22    1   27  39.6  62.8 1027.2  8.5  1.006 -99.9 -99.99 -9.99
2019/11/12 03:06 CST    1.26  -0.34   24  354   30  39.6  62.8 1027.1  8.5  1.006 -99.9 -99.99 -9.99
2019/11/12 03:12 CST    1.26  -0.38   19    4   25  39.6  62.8 1027.0  8.5  1.006 -99.9 -99.99 -9.99
2019/11/12 03:18 CST    1.26  -0.37   23    2   30  39.0  62.8 1027.1  8.5  1.006 -99.9 -99.99 -9.99
2019/11/12 03:24 CST    1.26  -0.44   25  357   31  39.0  62.8 1027.4  8.5  1.006 -99.9 -99.99 -9.99
2019/11/12 03:30 CST    1.26  -0.47   20  356   27  39.4  63.0 1027.5  8.5  1.006 -99.9 -99.99 -9.99
2019/11/12 03:36 CST    1.26  -0.54   22  357   28  39.0  63.0 1027.7  8.5  1.006 -99.9 -99.99 -9.99
2019/11/12 03:42 CST    1.26  -0.52   21    3   27  38.8  63.0 1027.5  8.5  1.006 -99.9 -99.99 -9.99
2019/11/12 03:48 CST    1.26  -0.55   25  348   31  39.2  62.8 1027.6  8.5  1.006 -99.9 -99.99 -9.99
2019/11/12 03:54 CST    1.26  -0.53   23  359   33  39.2  62.8 1027.9  8.3  1.006 -99.9 -99.99 -9.99
2019/11/12 04:00 CST    1.26  -0.51   22  353   29  38.7  62.6 1027.9  8.4  1.006 -99.9 -99.99 -9.99
2019/11/12 04:06 CST    1.26  -0.49   21    3   29  38.7  62.6 1027.9  8.3  1.006 -99.9 -99.99 -9.99
2019/11/12 04:12 CST    1.26  -0.53   18  351   26  38.8  62.6 1028.0  8.3  1.006 -99.9 -99.99 -9.99
2019/11/12 04:18 CST    1.26  -0.60   19  353   30  39.0  62.6 1028.1  8.3  1.006 -99.9 -99.99 -9.99
2019/11/12 04:24 CST    1.26  -0.62   24  357   27  38.8  62.4 1028.1  8.2  1.006 -99.9 -99.99 -9.99
2019/11/12 04:30 CST    1.26  -0.59   21  359   28  38.8  62.4 1028.3  8.3  1.006 -99.9 -99.99 -9.99
2019/11/12 04:36 CST    1.25  -0.63   24  348   30  39.4  62.2 1028.6  8.3  1.006 -99.9 -99.99 -9.99
2019/11/12 04:42 CST    1.25  -0.63   20  356   32  38.8  62.2 1028.3  8.2  1.006 -99.9 -99.99 -9.99
2019/11/12 04:48 CST    1.25  -0.65   22    0   29  39.0  62.2 1028.3  8.1  1.006 -99.9 -99.99 -9.99
2019/11/12 04:54 CST    1.25  -0.67   21  352   28  38.8  62.1 1028.4  8.2  1.006 -99.9 -99.99 -9.99
2019/11/12 05:00 CST    1.25  -0.66   22    2   26  38.5  62.1 1028.6  8.2  1.006 -99.9 -99.99 -9.99
2019/11/12 05:06 CST    1.24  -0.70   19  349   26  39.4  62.1 1028.7  8.1  1.006 -99.9 -99.99 -9.99
2019/11/12 05:12 CST    1.24  -0.71   22  352   25  39.0  62.1 1028.7  8.0  1.006 -99.9 -99.99 -9.99
2019/11/12 05:18 CST    1.24  -0.75   22  347   29  38.7  61.9 1028.8  8.1  1.006 -99.9 -99.99 -9.99
2019/11/12 05:24 CST    1.23  -0.77   24  347   31  39.2  61.9 1028.9  8.2  1.006 -99.9 -99.99 -9.99
2019/11/12 05:30 CST    1.23  -0.81   25    1   29  38.3  61.9 1029.0  8.1  1.006 -99.9 -99.99 -9.99
2019/11/12 05:36 CST    1.23  -0.83   24  347   31  38.5  61.9 1029.3  8.1  1.006 -99.9 -99.99 -9.99
2019/11/12 05:42 CST    1.22  -0.83   25  355   30  38.1  61.7 1029.3  8.1  1.006 -99.9 -99.99 -9.99
2019/11/12 05:48 CST    1.22  -0.84   23  353   29  38.1  61.7 1029.4  8.1  1.006 -99.9 -99.99 -9.99
2019/11/12 05:54 CST    1.21  -0.85   27  357   32  37.9  61.7 1029.4  8.0  1.006 -99.9 -99.99 -9.99
2019/11/12 06:00 CST    1.21  -0.90   23  357   33  38.1  61.9 1029.3  8.1  1.006 -99.9 -99.99 -9.99
2019/11/12 06:06 CST    1.20  -0.91   21  350   29  38.8  62.1 1029.6  8.1  1.006 -99.9 -99.99 -9.99
2019/11/12 06:12 CST    1.20  -0.93   23  353   29  37.8  62.1 1029.5  8.1  1.006 -99.9 -99.99 -9.99
2019/11/12 06:18 CST    1.19  -0.95   23  350   29  37.9  62.1 1029.5  8.2  1.006 -99.9 -99.99 -9.99
2019/11/12 06:24 CST    1.18  -0.96   20  359   29  37.9  62.1 1029.5  8.2  1.006 -99.9 -99.99 -9.99
2019/11/12 06:30 CST    1.18  -0.98   20  358   24  37.6  62.1 1029.7  8.3  1.006 -99.9 -99.99 -9.99
2019/11/12 06:36 CST    1.17  -1.01   24  353   29  37.4  62.1 1029.8  8.3  1.006 -99.9 -99.99 -9.99
2019/11/12 06:42 CST    1.16  -0.98   22    1   29  37.6  62.1 1029.9  8.3  1.006 -99.9 -99.99 -9.99
2019/11/12 06:48 CST    1.15  -1.11   22  353   27  37.4  61.9 1029.9  8.2  1.006 -99.9 -99.99 -9.99
2019/11/12 06:54 CST    1.14  -1.07   19  352   28  37.6  61.9 1030.1  8.1  1.006 -99.9 -99.99 -9.99
2019/11/12 07:00 CST    1.13  -1.11   17    0   27  37.6  61.7 1030.1  8.2  1.006 -99.9 -99.99 -9.99
2019/11/12 07:06 CST    1.12  -1.08   19    2   28  37.4  61.7 1030.0  8.1  1.006 -99.9 -99.99 -9.99
2019/11/12 07:12 CST    1.10  -1.07   22  353   30  37.4  61.5 1030.3  8.1  1.006 -99.9 -99.99 -9.99
2019/11/12 07:18 CST    1.09  -1.20   22  353   29  37.6  61.5 1030.4  8.1  1.006 -99.9 -99.99 -9.99
2019/11/12 07:24 CST    1.08  -1.09   20  346   27  38.1  61.3 1030.5  7.9  1.006 -99.9 -99.99 -9.99
2019/11/12 07:30 CST    1.06  -1.26   20  353   27  37.2  61.3 1030.3  7.9  1.006 -99.9 -99.99 -9.99
2019/11/12 07:36 CST    1.05  -1.14   23  357   29  37.0  61.2 1030.5  8.0  1.006 -99.9 -99.99 -9.99
2019/11/12 07:42 CST    1.03  -1.19   21    4   29  36.9  61.2 1030.3  7.9  1.006 -99.9 -99.99 -9.99
2019/11/12 07:48 CST    1.02  -1.12   23  352   28  36.9  61.0 1030.4  7.9  1.006 -99.9 -99.99 -9.99
2019/11/12 07:54 CST    1.00  -1.28   19  355   27  36.9  60.6 1030.4  8.0  1.006 -99.9 -99.99 -9.99
2019/11/12 08:00 CST    0.99  -1.18   23  358   27  36.3  60.6 1030.6  8.0  1.006 -99.9 -99.99 -9.99
2019/11/12 08:06 CST    0.97  -1.20   20  353   26  36.5  60.6 1030.7  7.9  1.006 -99.9 -99.99 -9.99
2019/11/12 08:12 CST    0.95  -1.16   21  352   25  36.9  60.8 1030.9  8.0  1.006 -99.9 -99.99 -9.99
2019/11/12 08:18 CST    0.94  -1.14   21  349   28  36.7  60.8 1031.2  7.9  1.006 -99.9 -99.99 -9.99
2019/11/12 08:24 CST    0.92  -1.35   23  348   26  36.1  60.6 1031.4  7.9  1.006 -99.9 -99.99 -9.99
2019/11/12 08:30 CST    0.90  -1.28   19  351   26  36.9  60.6 1031.5  7.9  1.006 -99.9 -99.99 -9.99
2019/11/12 08:36 CST    0.88  -1.22   23  352   26  36.7  60.6 1031.6  7.9  1.006 -99.9 -99.99 -9.99
2019/11/12 08:42 CST    0.87  -1.14   19  353   28  36.7  60.6 1031.5  7.9  1.006 -99.9 -99.99 -9.99
2019/11/12 08:48 CST    0.85  -1.18   24    2   29  36.1  60.6 1031.4  7.9  1.006 -99.9 -99.99 -9.99
2019/11/12 08:54 CST    0.83  -1.26   20    6   26  36.5  60.3 1031.4  8.0  1.006 -99.9 -99.99 -9.99
2019/11/12 09:00 CST    0.81  -1.33   20    6   27  36.5  59.9 1031.4  8.0  1.006 -99.9 -99.99 -9.99
2019/11/12 09:06 CST    0.79  -1.32   20    0   28  36.0  59.9 1031.5  8.0  1.006 -99.9 -99.99 -9.99
2019/11/12 09:12 CST    0.77  -1.32   17    4   26  36.9  59.5 1031.6  8.0  1.006 -99.9 -99.99 -9.99
2019/11/12 09:18 CST    0.75  -1.36   17  355   22  37.4  59.5 1031.7  8.0  1.006 -99.9 -99.99 -9.99
2019/11/12 09:24 CST    0.74  -1.39   21  343   28  36.9  59.9 1032.1  8.0  1.006 -99.9 -99.99 -9.99
2019/11/12 09:30 CST    0.72  -1.47   22  345   26  37.8  59.7 1032.0  8.0  1.006 -99.9 -99.99 -9.99
2019/11/12 09:36 CST    0.70  -1.45   22  348   27  36.7  59.5 1032.1  7.9  1.006 -99.9 -99.99 -9.99
2019/11/12 09:42 CST    0.68  -1.43   21  353   25  37.6  59.4 1031.9  8.0  1.006 -99.9 -99.99 -9.99
2019/11/12 09:48 CST    0.66  -1.50   17  358   23  37.8  59.5 1031.9  8.1  1.006 -99.9 -99.99 -9.99
2019/11/12 09:54 CST    0.64  -1.52   19    7   25  37.8  59.5 1031.9  8.0  1.006 -99.9 -99.99 -9.99
2019/11/12 10:00 CST    0.62  -1.51   18  348   23  38.3  59.7 1031.9  7.9  1.006 -99.9 -99.99 -9.99
2019/11/12 10:06 CST    0.60  -1.49   22  358   27  37.4  59.7 1032.1  7.9  1.006 -99.9 -99.99 -9.99
2019/11/12 10:12 CST    0.58  -1.50   18  348   24  38.1  60.1 1032.0  7.9  1.006 -99.9 -99.99 -9.99
2019/11/12 10:18 CST    0.56  -1.56   19  347   24  37.9  60.1 1031.9  8.4  1.006 -99.9 -99.99 -9.99
2019/11/12 10:24 CST    0.54  -1.57   17    4   24  38.1  60.1 1031.9  8.0  1.006 -99.9 -99.99 -9.99
2019/11/12 10:30 CST    0.51  -1.70   18  355   21  38.3  60.3 1031.8  7.9  1.006 -99.9 -99.99 -9.99
2019/11/12 10:36 CST    0.49  -1.59   20    4   25  37.9  60.3 1031.7  7.9  1.006 -99.9 -99.99 -9.99
2019/11/12 10:42 CST    0.47  -1.66   19    6   22  38.1  60.6 1031.8  7.9  1.006 -99.9 -99.99 -9.99
2019/11/12 10:48 CST    0.45  -1.58   19  341   24  38.8  60.8 1031.7  8.0  1.006 -99.9 -99.99 -9.99
2019/11/12 10:54 CST    0.44  -1.54   19  349   25  38.1  61.0 1031.6  7.9  1.006 -99.9 -99.99 -9.99
2019/11/12 11:00 CST    0.42  -1.62   18  357   24  38.5  61.0 1031.4  7.9  1.006 -99.9 -99.99 -9.99
2019/11/12 11:06 CST    0.40  -1.70   16  341   21  39.4  61.0 1031.4  7.9  1.006 -99.9 -99.99 -9.99
2019/11/12 11:12 CST    0.38  -1.70   18  349   22  39.4  61.0 1031.4  8.0  1.006 -99.9 -99.99 -9.99
2019/11/12 11:18 CST    0.36  -1.67   17  350   21  39.6  61.0 1031.3  7.9  1.006 -99.9 -99.99 -9.99
2019/11/12 11:24 CST    0.34  -1.69   17  349   22  39.4  61.0 1031.3  7.9  1.006 -99.9 -99.99 -9.99
2019/11/12 11:30 CST    0.33  -1.73   18    5   24  39.0  61.0 1031.3  7.8  1.006 -99.9 -99.99 -9.99
2019/11/12 11:36 CST    0.31  -1.71   16  354   20  39.7  61.0 1031.3  7.9  1.006 -99.9 -99.99 -9.99
2019/11/12 11:42 CST    0.29  -1.73   19    1   22  39.7  61.0 1031.0  7.8  1.006 -99.9 -99.99 -9.99
2019/11/12 11:48 CST    0.28  -1.69   17  359   21  40.5  60.8 1030.9  7.8  1.006 -99.9 -99.99 -9.99
2019/11/12 11:54 CST    0.26  -1.68   16    6   22  40.8  60.8 1030.7  7.8  1.006 -99.9 -99.99 -9.99
2019/11/12 12:00 CST    0.25  -1.71   16  353   21  41.0  60.8 1030.6  7.7  1.006 -99.9 -99.99 -9.99
2019/11/12 12:06 CST    0.24  -1.72   14  347   22  40.6  60.8 1030.6  7.7  1.006 -99.9 -99.99 -9.99
2019/11/12 12:12 CST    0.22  -1.70   17  353   21  40.8  60.8 1030.5  7.8  1.006 -99.9 -99.99 -9.99
2019/11/12 12:18 CST    0.21  -1.69   17  351   21  41.2  60.8 1030.5  7.7  1.006 -99.9 -99.99 -9.99
2019/11/12 12:24 CST    0.20  -1.70   19    7   23  40.6  60.6 1030.5  7.8  1.006 -99.9 -99.99 -9.99
2019/11/12 12:30 CST    0.19  -1.72   18  357   23  41.7  60.6 1030.6  7.8  1.006 -99.9 -99.99 -9.99
2019/11/12 12:36 CST    0.18  -1.67   17  348   22  41.9  60.6 1030.5  7.8  1.006 -99.9 -99.99 -9.99
2019/11/12 12:42 CST    0.17  -1.64   12  355   20  42.1  60.6 1030.3  8.6  1.006 -99.9 -99.99 -9.99
2019/11/12 12:48 CST    0.16  -1.75   16  340   21  42.8  60.6 1030.2  7.8  1.006 -99.9 -99.99 -9.99
2019/11/12 12:54 CST    0.15  -1.83   11  354   17  42.6  60.6 1030.0  7.8  1.006 -99.9 -99.99 -9.99
2019/11/12 13:00 CST    0.15  -1.82   15  351   18  42.8  60.6 1030.0  7.6  1.006 -99.9 -99.99 -9.99
2019/11/12 13:06 CST    0.14  -1.79   15  350   18  43.3  60.4 1030.0  7.7  1.006 -99.9 -99.99 -9.99
2019/11/12 13:12 CST    0.14  -1.71   14  336   21  43.7  60.4 1030.0  7.7  1.006 -99.9 -99.99 -9.99
2019/11/12 13:18 CST    0.13  -1.78   17  354   21  43.0  60.6 1030.0  7.8  1.006 -99.9 -99.99 -9.99
2019/11/12 13:24 CST    0.13  -1.69   18  344   22  43.2  60.4 1029.9  7.7  1.006 -99.9 -99.99 -9.99
2019/11/12 13:30 CST    0.13  -1.75   17  347   20  43.7  60.4 1029.7  7.7  1.006 -99.9 -99.99 -9.99
2019/11/12 13:36 CST    0.12  -1.72   21    3   25  43.0  60.4 1029.8  7.7  1.006 -99.9 -99.99 -9.99
2019/11/12 13:42 CST    0.12  -1.78   18  360   22  43.7  60.4 1029.7  7.7  1.006 -99.9 -99.99 -9.99
2019/11/12 13:48 CST    0.12  -1.71   16  350   21  43.7  60.3 1029.6  7.7  1.006 -99.9 -99.99 -9.99
2019/11/12 13:54 CST    0.12  -1.59   17  348   21  43.5  60.4 1029.5  7.7  1.006 -99.9 -99.99 -9.99
2019/11/12 14:00 CST    0.13  -1.78   19    2   22  43.7  60.3 1029.4  7.8  1.006 -99.9 -99.99 -9.99
2019/11/12 14:06 CST    0.13  -1.77   17  355   22  44.1  60.3 1029.3  7.8  1.006 -99.9 -99.99 -9.99
2019/11/12 14:12 CST    0.14  -1.75   15    4   18  44.6  60.3 1029.2  7.8  1.006 -99.9 -99.99 -9.99
2019/11/12 14:18 CST    0.14  -1.68   15  341   18  44.6  60.3 1029.1  7.8  1.006 -99.9 -99.99 -9.99
2019/11/12 14:24 CST    0.15  -1.71   17  352   21  44.2  60.3 1029.2  7.7  1.006 -99.9 -99.99 -9.99
2019/11/12 14:30 CST    0.16  -1.66   16  349   22  44.1  60.1 1029.2  7.7  1.006 -99.9 -99.99 -9.99
2019/11/12 14:36 CST    0.17  -1.64   15  349   21  44.4  60.1 1029.1  7.7  1.006 -99.9 -99.99 -9.99
2019/11/12 14:42 CST    0.18  -1.58   17  352   22  44.2  60.1 1029.2  7.7  1.006 -99.9 -99.99 -9.99
2019/11/12 14:48 CST    0.19  -1.60   16  351   23  44.6  60.1 1029.2  7.7  1.006 -99.9 -99.99 -9.99
2019/11/12 14:54 CST    0.20  -1.55   18  343   23  44.8  60.1 1029.1  7.6  1.006 -99.9 -99.99 -9.99
2019/11/12 15:00 CST    0.21  -1.50   18  349   22  44.8  60.1 1029.1  7.9  1.006 -99.9 -99.99 -9.99
2019/11/12 15:06 CST    0.23  -1.44   15  347   22  45.1  60.1 1029.1  7.6  1.006 -99.9 -99.99 -9.99
2019/11/12 15:12 CST    0.24  -1.48   17    1   22  44.4  60.1 1029.2  7.6  1.006 -99.9 -99.99 -9.99
2019/11/12 15:18 CST    0.26  -1.45   17  359   21  44.1  59.9 1029.1  7.6  1.006 -99.9 -99.99 -9.99
2019/11/12 15:24 CST    0.28  -1.37   15  336   21  44.6  59.9 1029.1  7.6  1.006 -99.9 -99.99 -9.99
2019/11/12 15:30 CST    0.29  -1.39   16  354   21  44.1  59.9 1029.2  7.6  1.006 -99.9 -99.99 -9.99
2019/11/12 15:36 CST    0.31  -1.41   16  348   22  43.9  59.9 1029.2  7.6  1.006 -99.9 -99.99 -9.99
2019/11/12 15:42 CST    0.33  -1.36   16  352   22  43.7  59.7 1029.2  7.4  1.006 -99.9 -99.99 -9.99
2019/11/12 15:48 CST    0.35  -1.37   16  352   21  43.7  59.7 1029.1  7.5  1.006 -99.9 -99.99 -9.99
2019/11/12 15:54 CST    0.37  -1.27   15  350   19  44.1  59.7 1029.2  7.3  1.006 -99.9 -99.99 -9.99
2019/11/12 16:00 CST    0.39  -1.42   16  344   20  43.9  59.7 1029.2  7.5  1.006 -99.9 -99.99 -9.99
2019/11/12 16:06 CST    0.41  -1.31   16  359   24  43.2  59.9 1029.1  7.4  1.006 -99.9 -99.99 -9.99
2019/11/12 16:12 CST    0.43  -1.33   16  357   21  43.2  59.9 1029.1  7.4  1.006 -99.9 -99.99 -9.99
2019/11/12 16:18 CST    0.45  -1.27   14    4   19  43.3  59.9 1029.1  7.4  1.006 -99.9 -99.99 -9.99
2019/11/12 16:24 CST    0.48  -1.24   14    4   18  43.0  59.7 1029.2  7.4  1.006 -99.9 -99.99 -9.99
2019/11/12 16:30 CST    0.50  -1.21   16  350   18  43.3  59.7 1029.2  7.4  1.006 -99.9 -99.99 -9.99
2019/11/12 16:36 CST    0.52  -1.19   15  349   19  43.0  59.7 1029.2  7.4  1.006 -99.9 -99.99 -9.99
2019/11/12 16:42 CST    0.55  -1.16   13  353   19  43.2  59.7 1029.1  7.4  1.006 -99.9 -99.99 -9.99
2019/11/12 16:48 CST    0.57  -1.13   14  351   17  43.3  59.7 1029.1  7.3  1.006 -99.9 -99.99 -9.99
2019/11/12 16:54 CST    0.59  -1.14   14    2   16  42.8  59.7 1029.2  7.3  1.006 -99.9 -99.99 -9.99
2019/11/12 17:00 CST    0.62  -1.11   13  349   17  43.3  59.5 1029.2  7.3  1.006 -99.9 -99.99 -9.99
2019/11/12 17:06 CST    0.64  -1.04   12  352   18  43.3  59.5 1029.3  7.3  1.006 -99.9 -99.99 -9.99
2019/11/12 17:12 CST    0.66  -0.99   15  352   20  43.7  59.5 1029.3  7.3  1.006 -99.9 -99.99 -9.99
2019/11/12 17:18 CST    0.69  -0.92   14  355   19  43.5  59.5 1029.3  7.3  1.006 -99.9 -99.99 -9.99
2019/11/12 17:24 CST    0.71  -0.91   15  353   18  43.2  59.4 1029.2  7.3  1.006 -99.9 -99.99 -9.99
2019/11/12 17:30 CST    0.74  -0.88   14  355   18  43.3  59.4 1029.3  7.3  1.006 -99.9 -99.99 -9.99
2019/11/12 17:36 CST    0.76  -0.85   14  356   18  43.0  59.4 1029.3  7.2  1.006 -99.9 -99.99 -9.99
2019/11/12 17:42 CST    0.79  -0.78   12  359   18  43.3  59.4 1029.3  7.3  1.006 -99.9 -99.99 -9.99
2019/11/12 17:48 CST    0.81  -0.72   13    4   17  43.2  59.2 1029.3  7.3  1.006 -99.9 -99.99 -9.99
2019/11/12 17:54 CST    0.84  -0.71   13  357   18  43.3  59.2 1029.3  7.3  1.006 -99.9 -99.99 -9.99
2019/11/12 18:00 CST    0.86  -0.67   15    1   18  43.3  59.2 1029.2  7.3  1.006 -99.9 -99.99 -9.99
2019/11/12 18:06 CST    0.89  -0.65   14    0   18  43.3  59.2 1029.2  7.3  1.006 -99.9 -99.99 -9.99
2019/11/12 18:12 CST    0.91  -0.59   14  352   17  43.2  59.0 1029.2  7.3  1.006 -99.9 -99.99 -9.99
2019/11/12 18:18 CST    0.94  -0.58   14  359   17  42.6  59.0 1029.0  7.3  1.006 -99.9 -99.99 -9.99
2019/11/12 18:24 CST    0.96  -0.50   11  356   13  42.6  59.0 1029.1  7.2  1.006 -99.9 -99.99 -9.99
2019/11/12 18:30 CST    0.99  -0.50   12  354   15  42.6  58.8 1029.1  7.2  1.006 -99.9 -99.99 -9.99
2019/11/12 18:36 CST    1.01  -0.54   13  358   15  42.6  58.6 1029.1  7.2  1.006 -99.9 -99.99 -9.99
2019/11/12 18:42 CST    1.04  -0.47   13  356   16  42.6  58.6 1029.0  7.2  1.006 -99.9 -99.99 -9.99
2019/11/12 18:48 CST    1.06  -0.44   13  358   16  42.6  58.5 1028.9  7.3  1.006 -99.9 -99.99 -9.99
2019/11/12 18:54 CST    1.08  -0.26   12  357   16  42.3  58.5 1029.0  7.2  1.006 -99.9 -99.99 -9.99
2019/11/12 19:00 CST    1.10  -0.53   12  358   15  41.9  58.5 1029.0  7.2  1.006 -99.9 -99.99 -9.99
2019/11/12 19:06 CST    1.12  -0.37   11  358   17  42.1  58.5 1029.1  7.1  1.006 -99.9 -99.99 -9.99
2019/11/12 19:12 CST    1.15  -0.38   11  354   14  41.9  58.5 1029.2  7.1  1.006 -99.9 -99.99 -9.99
2019/11/12 19:18 CST    1.17  -0.31   13  358   16  41.7  58.3 1029.2  7.2  1.006 -99.9 -99.99 -9.99
2019/11/12 19:24 CST    1.19  -0.26   12    0   16  41.7  58.5 1029.3  7.3  1.006 -99.9 -99.99 -9.99
2019/11/12 19:30 CST    1.20  -0.25   13    2   17  41.9  58.5 1029.3  7.3  1.006 -99.9 -99.99 -9.99
2019/11/12 19:36 CST    1.22  -0.24   13    0   16  41.9  58.5 1029.4  7.4  1.006 -99.9 -99.99 -9.99
2019/11/12 19:42 CST    1.24  -0.16   12    6   17  41.7  58.5 1029.3  7.4  1.006 -99.9 -99.99 -9.99
2019/11/12 19:48 CST    1.26  -0.11   11    8   16  41.9  58.5 1029.3  7.4  1.006 -99.9 -99.99 -9.99
2019/11/12 19:54 CST    1.27  -0.14   12    3   16  41.7  58.5 1029.3  7.5  1.006 -99.9 -99.99 -9.99
2019/11/12 20:00 CST    1.29  -0.08   13    7   16  41.2  58.5 1029.4  7.5  1.006 -99.9 -99.99 -9.99
2019/11/12 20:06 CST    1.30   0.05   13    9   16  41.2  58.6 1029.4  7.6  1.006 -99.9 -99.99 -9.99
2019/11/12 20:12 CST    1.32  -0.13   11    7   16  41.2  58.6 1029.3  7.6  1.006 -99.9 -99.99 -9.99
2019/11/12 20:18 CST    1.33   0.08   11    9   15  41.4  58.5 1029.3  7.6  1.006 -99.9 -99.99 -9.99
2019/11/12 20:24 CST    1.35   0.12   12    8   14  40.8  58.6 1029.4  7.6  1.006 -99.9 -99.99 -9.99
2019/11/12 20:30 CST    1.36   0.01   11    7   15  40.8  58.5 1029.4  7.5  1.006 -99.9 -99.99 -9.99
2019/11/12 20:36 CST    1.37   0.09   11    6   16  40.6  58.5 1029.4  7.5  1.006 -99.9 -99.99 -9.99
2019/11/12 20:42 CST    1.38   0.18   12    5   14  40.6  58.5 1029.4  7.6  1.006 -99.9 -99.99 -9.99
2019/11/12 20:48 CST    1.40   0.16   10    7   13  40.5  58.5 1029.6  7.6  1.006 -99.9 -99.99 -9.99
2019/11/12 20:54 CST    1.41   0.26   11   10   14  40.3  58.5 1029.6  7.6  1.006 -99.9 -99.99 -9.99
2019/11/12 21:00 CST    1.42   0.22   11    4   13  40.5  58.5 1029.6  7.8  1.006 -99.9 -99.99 -9.99
2019/11/12 21:06 CST    1.43   0.24   12    6   15  40.1  58.6 1029.6  7.9  1.006 -99.9 -99.99 -9.99
2019/11/12 21:12 CST    1.44   0.26   12    5   15  39.9  58.6 1029.5  7.9  1.006 -99.9 -99.99 -9.99
2019/11/12 21:18 CST    1.45   0.30   11    6   15  40.1  58.6 1029.5  7.9  1.006 -99.9 -99.99 -9.99
2019/11/12 21:24 CST    1.45   0.30   11    3   14  39.7  58.6 1029.5  8.1  1.006 -99.9 -99.99 -9.99
2019/11/12 21:30 CST    1.46   0.31   13   11   16  39.6  58.6 1029.5  8.1  1.006 -99.9 -99.99 -9.99
2019/11/12 21:36 CST    1.47   0.36   12   10   15  39.2  58.6 1029.6  8.0  1.006 -99.9 -99.99 -9.99
2019/11/12 21:42 CST    1.48   0.33   11   10   14  39.6  58.6 1029.6  8.1  1.006 -99.9 -99.99 -9.99
2019/11/12 21:48 CST    1.48   0.40    9   16   13  38.8  58.6 1029.6  8.1  1.006 -99.9 -99.99 -9.99
2019/11/12 21:54 CST    1.49   0.45   11   10   13  38.7  59.4 1029.4  8.4  1.006 -99.9 -99.99 -9.99
2019/11/12 22:00 CST    1.49   0.26   11   14   13  38.8  59.9 1029.4  9.3  1.007 -99.9 -99.99 -9.99
2019/11/12 22:06 CST    1.49   0.50   11   24   14  39.0  60.8 1029.4  9.5  1.007 -99.9 -99.99 -9.99
2019/11/12 22:12 CST    1.50   0.33   11   19   14  39.0  60.8 1029.3  9.4  1.007 -99.9 -99.99 -9.99
2019/11/12 22:18 CST    1.50   0.38   10   19   13  38.5  60.8 1029.3  9.2  1.007 -99.9 -99.99 -9.99
2019/11/12 22:24 CST    1.50   0.49   10   26   14  38.7  60.6 1029.3  9.6  1.007 -99.9 -99.99 -9.99
2019/11/12 22:30 CST    1.50   0.43   11   23   16  38.8  60.6 1029.3  9.6  1.007 -99.9 -99.99 -9.99
2019/11/12 22:36 CST    1.50   0.50   13   23   16  38.7  61.0 1029.3  9.8  1.007 -99.9 -99.99 -9.99
2019/11/12 22:42 CST    1.50   0.43   12   23   16  38.1  61.2 1029.3 10.0  1.007 -99.9 -99.99 -9.99
2019/11/12 22:48 CST    1.50   0.52   11   30   14  37.9  61.2 1029.3 10.4  1.008 -99.9 -99.99 -9.99
2019/11/12 22:54 CST    1.50   0.50   12   23   14  37.9  61.0 1029.3 10.2  1.008 -99.9 -99.99 -9.99
2019/11/12 23:00 CST    1.50   0.55   10   27   15  38.1  60.8 1029.3 10.0  1.008 -99.9 -99.99 -9.99
2019/11/12 23:06 CST    1.50   0.62   10   25   14  37.9  60.6 1029.3 10.2  1.008 -99.9 -99.99 -9.99
2019/11/12 23:12 CST    1.49   0.64   10   27   13  37.9  60.3 1029.4  9.9  1.007 -99.9 -99.99 -9.99
2019/11/12 23:18 CST    1.49   0.62    9   25   12  37.4  60.1 1029.3  9.9  1.007 -99.9 -99.99 -9.99
2019/11/12 23:24 CST    1.49   0.57    9   35   12  37.9  59.9 1029.3 10.0  1.008 -99.9 -99.99 -9.99
2019/11/12 23:30 CST    1.48   0.63   11   28   14  37.4  59.7 1029.4  9.8  1.007 -99.9 -99.99 -9.99
2019/11/12 23:36 CST    1.48   0.62   10   29   12  37.2  59.7 1029.4  9.9  1.008 -99.9 -99.99 -9.99
2019/11/12 23:42 CST    1.47   0.68    9   30   12  37.2  59.7 1029.5  9.9  1.008 -99.9 -99.99 -9.99
2019/11/12 23:48 CST    1.47   0.60   10   35   14  36.9  59.7 1029.5 10.1  1.008 -99.9 -99.99 -9.99
2019/11/12 23:54 CST    1.47   0.58    8   34   11  36.9  59.9 1029.4 10.1  1.008 -99.9 -99.99 -9.99
2019/11/13 00:00 CST    1.46   0.61    9   28   12  37.0  59.9 1029.4 10.1  1.008 -99.9 -99.99 -9.99
2019/11/13 00:06 CST    1.46   0.60   10   31   13  36.5  59.7 1029.4  9.9  1.008 -99.9 -99.99 -9.99
2019/11/13 00:12 CST    1.45   0.63   11   35   14  36.5  59.5 1029.4 10.2  1.008 -99.9 -99.99 -9.99
2019/11/13 00:18 CST    1.45   0.66    8   34   11  36.5  59.2 1029.4 10.4  1.008 -99.9 -99.99 -9.99
2019/11/13 00:24 CST    1.45   0.64    8   34   10  36.1  59.0 1029.4 10.6  1.008 -99.9 -99.99 -9.99
2019/11/13 00:30 CST    1.44   0.66    7   35   10  36.5  59.0 1029.3 10.2  1.008 -99.9 -99.99 -9.99
2019/11/13 00:36 CST    1.44   0.61    8   29   11  36.1  58.8 1029.3 10.5  1.008 -99.9 -99.99 -9.99
2019/11/13 00:42 CST    1.43   0.65    7   30    9  36.1  59.0 1029.4 10.5  1.008 -99.9 -99.99 -9.99
2019/11/13 00:48 CST    1.43   0.67    7   27    8  36.1  59.0 1029.3 10.5  1.008 -99.9 -99.99 -9.99
2019/11/13 00:54 CST    1.42   0.74    5    2    7  35.8  59.0 1029.4 10.4  1.008 -99.9 -99.99 -9.99
2019/11/13 01:00 CST    1.42   0.69    5   10    6  36.0  59.0 1029.5 10.4  1.008 -99.9 -99.99 -9.99
2019/11/13 01:06 CST    1.42   0.71    5  353    7  36.0  59.0 1029.6 10.4  1.008 -99.9 -99.99 -9.99
2019/11/13 01:12 CST    1.41   0.66    6    2    8  35.8  59.0 1029.5 10.3  1.008 -99.9 -99.99 -9.99
2019/11/13 01:18 CST    1.41   0.71    5    5    8  35.6  59.2 1029.4 10.1  1.008 -99.9 -99.99 -9.99
2019/11/13 01:24 CST    1.40   0.71    5    6    7  35.4  59.2 1029.4 10.2  1.008 -99.9 -99.99 -9.99
2019/11/13 01:30 CST    1.40   0.70    7   10    9  35.4  59.2 1029.2  9.2  1.007 -99.9 -99.99 -9.99
2019/11/13 01:36 CST    1.39   0.67    5   15    8  35.4  59.2 1029.1  9.2  1.007 -99.9 -99.99 -9.99
2019/11/13 01:42 CST    1.39   0.63    6   18    8  35.1  59.2 1029.1  9.2  1.007 -99.9 -99.99 -9.99
2019/11/13 01:48 CST    1.38   0.65    6   13    8  34.9  59.2 1029.0  9.3  1.007 -99.9 -99.99 -9.99
2019/11/13 01:54 CST    1.38   0.65    6   20   10  35.1  59.2 1029.0  9.3  1.007 -99.9 -99.99 -9.99
2019/11/13 02:00 CST    1.37   0.65    5   27    8  35.1  59.0 1029.0  9.3  1.007 -99.9 -99.99 -9.99
2019/11/13 02:06 CST    1.37   0.69    7   27    8  34.7  58.8 1029.2  9.3  1.007 -99.9 -99.99 -9.99
2019/11/13 02:12 CST    1.37   0.68    6   29    8  34.5  58.8 1029.2  9.2  1.007 -99.9 -99.99 -9.99
2019/11/13 02:18 CST    1.36   0.71    6   25    8  34.7  58.8 1029.2  9.2  1.007 -99.9 -99.99 -9.99
2019/11/13 02:24 CST    1.36   0.70    5   27    8  34.5  58.8 1029.3  9.2  1.007 -99.9 -99.99 -9.99
2019/11/13 02:30 CST    1.35   0.72    5   39    6  34.9  58.6 1029.2  9.3  1.007 -99.9 -99.99 -9.99
2019/11/13 02:36 CST    1.35   0.76    5   37    6  34.9  58.5 1029.2  9.3  1.007 -99.9 -99.99 -9.99
2019/11/13 02:42 CST    1.35   0.80    4   35    7  34.7  58.3 1029.2  9.3  1.007 -99.9 -99.99 -9.99
2019/11/13 02:48 CST    1.35   0.79    6   26    6  34.5  58.3 1029.1  9.4  1.007 -99.9 -99.99 -9.99
2019/11/13 02:54 CST    1.34   0.82    6   35    8  34.5  58.1 1028.9  9.4  1.007 -99.9 -99.99 -9.99
2019/11/13 03:00 CST    1.34   0.83    6   38    8  34.3  58.3 1028.9  9.5  1.007 -99.9 -99.99 -9.99
2019/11/13 03:06 CST    1.34   0.87    7   35   10  34.3  58.3 1029.0  9.4  1.007 -99.9 -99.99 -9.99
2019/11/13 03:12 CST    1.34   0.86    7   40    8  34.0  58.3 1029.1  9.4  1.007 -99.9 -99.99 -9.99
2019/11/13 03:18 CST    1.33   0.87    6   40    8  33.8  58.3 1029.1  9.4  1.007 -99.9 -99.99 -9.99
2019/11/13 03:24 CST    1.33   0.88    7   35    8  33.8  58.3 1029.0  9.6  1.007 -99.9 -99.99 -9.99
2019/11/13 03:30 CST    1.33   0.92    7   36   10  34.0  58.3 1028.9 10.5  1.008 -99.9 -99.99 -9.99
2019/11/13 03:36 CST    1.33   0.93    7   33    9  33.6  58.3 1028.6 10.3  1.008 -99.9 -99.99 -9.99
2019/11/13 03:42 CST    1.33   0.94    8   36   10  34.0  58.3 1028.5 10.4  1.008 -99.9 -99.99 -9.99
2019/11/13 03:48 CST    1.33   0.87    8   36   11  33.6  58.5 1028.5 10.4  1.008 -99.9 -99.99 -9.99
2019/11/13 03:54 CST    1.33   0.98    8   37   11  33.8  58.8 1028.4 10.3  1.008 -99.9 -99.99 -9.99
2019/11/13 04:00 CST    1.33   0.94    6   44   11  33.6  59.0 1028.5 10.3  1.008 -99.9 -99.99 -9.99
2019/11/13 04:06 CST    1.33   1.02    4   36    8  33.6  59.9 1028.8 10.3  1.008 -99.9 -99.99 -9.99
2019/11/13 04:12 CST    1.32   1.08    6   39    7  33.1  60.1 1028.9 10.5  1.008 -99.9 -99.99 -9.99
2019/11/13 04:18 CST    1.32   1.12    5   32    7  33.4  60.3 1028.7 10.5  1.008 -99.9 -99.99 -9.99
2019/11/13 04:24 CST    1.32   0.90    5   33    7  33.3  59.9 1028.7 10.2  1.008 -99.9 -99.99 -9.99
2019/11/13 04:30 CST    1.32   0.90    5   20    6  33.4  58.8 1028.7  9.5  1.007 -99.9 -99.99 -9.99
2019/11/13 04:36 CST    1.32   1.05    4   34    7  33.3  58.6 1028.6  9.8  1.008 -99.9 -99.99 -9.99
2019/11/13 04:42 CST    1.31   1.09    5   41    7  33.1  58.6 1028.6  9.7  1.007 -99.9 -99.99 -9.99
2019/11/13 04:48 CST    1.31   1.16    5   43    8  33.1  58.8 1028.6 10.0  1.008 -99.9 -99.99 -9.99
2019/11/13 04:54 CST    1.31   1.06    5   42    7  33.1  59.2 1028.5 10.0  1.008 -99.9 -99.99 -9.99
2019/11/13 05:00 CST    1.30   1.01    6   43    7  32.9  59.4 1028.5 10.2  1.008 -99.9 -99.99 -9.99
2019/11/13 05:06 CST    1.30   1.10    6   33    8  32.9  59.2 1028.5 10.2  1.008 -99.9 -99.99 -9.99
2019/11/13 05:12 CST    1.30   1.14    6   45    9  32.5  59.2 1028.5 10.5  1.008 -99.9 -99.99 -9.99
2019/11/13 05:18 CST    1.29   1.17    6   27    8  32.7  59.2 1028.6 10.5  1.008 -99.9 -99.99 -9.99
2019/11/13 05:24 CST    1.29   1.18    6   27    9  32.9  59.4 1028.6 10.5  1.008 -99.9 -99.99 -9.99
2019/11/13 05:30 CST    1.28   1.12    7   30    8  32.5  59.4 1028.5 10.5  1.008 -99.9 -99.99 -9.99
2019/11/13 05:36 CST    1.28   1.13    6   34    8  32.9  59.4 1028.3 11.5  1.009 -99.9 -99.99 -9.99
2019/11/13 05:42 CST    1.27   1.18    6   23    9  32.5  59.7 1028.2 11.5  1.009 -99.9 -99.99 -9.99
2019/11/13 05:48 CST    1.26   1.14    5   27    7  32.5  59.9 1028.3 11.5  1.009 -99.9 -99.99 -9.99
2019/11/13 05:54 CST    1.26   1.25    6   18    7  32.4  60.1 1028.2 10.8  1.008 -99.9 -99.99 -9.99
2019/11/13 06:00 CST    1.25   1.24    6   30    8  32.2  60.3 1028.1 10.8  1.008 -99.9 -99.99 -9.99
2019/11/13 06:06 CST    1.24   1.24    6   31    8  32.0  60.3 1028.3 10.8  1.008 -99.9 -99.99 -9.99
2019/11/13 06:12 CST    1.23   1.26    7   23    8  31.8  60.3 1028.4 10.8  1.008 -99.9 -99.99 -9.99
2019/11/13 06:18 CST    1.23   1.31    6   26    9  32.0  60.3 1028.3 10.7  1.008 -99.9 -99.99 -9.99
2019/11/13 06:24 CST    1.22   1.43    6   26    8  31.8  60.3 1028.4 10.8  1.008 -99.9 -99.99 -9.99
2019/11/13 06:30 CST    1.21   1.33    5   13    7  31.6  60.1 1028.6 10.4  1.008 -99.9 -99.99 -9.99
2019/11/13 06:36 CST    1.20   1.35    5   38    7  31.8  59.9 1028.5 10.3  1.008 -99.9 -99.99 -9.99
2019/11/13 06:42 CST    1.19   1.38    7   34    9  31.6  59.7 1028.4 10.5  1.008 -99.9 -99.99 -9.99
2019/11/13 06:48 CST    1.18   1.41    7   35    9  31.5  59.7 1028.2 10.5  1.008 -99.9 -99.99 -9.99
2019/11/13 06:54 CST    1.17   1.40    8   33   10  31.6  59.5 1028.1 10.6  1.008 -99.9 -99.99 -9.99
2019/11/13 07:00 CST    1.16   1.35    8   29   10  31.6  59.5 1028.1 10.8  1.008 -99.9 -99.99 -9.99
2019/11/13 07:06 CST    1.15   1.41    7   26   10  31.8  59.7 1028.1 10.7  1.008 -99.9 -99.99 -9.99
2019/11/13 07:12 CST    1.13   1.39    7   33   11  31.5  59.7 1028.2 11.5  1.009 -99.9 -99.99 -9.99
2019/11/13 07:18 CST    1.12   1.36    8   41   10  31.3  59.0 1028.2 11.4  1.009 -99.9 -99.99 -9.99
2019/11/13 07:24 CST    1.11   1.36    7   34   10  31.5  59.0 1028.2 11.5  1.009 -99.9 -99.99 -9.99
2019/11/13 07:30 CST    1.09   1.39    6   34    8  31.3  59.0 1028.4 11.8  1.009 -99.9 -99.99 -9.99
2019/11/13 07:36 CST    1.08   1.42    5   39    8  32.0  59.0 1028.3 11.9  1.009 -99.9 -99.99 -9.99
2019/11/13 07:42 CST    1.07   1.42    7   40    9  31.6  59.0 1028.1 12.0  1.009 -99.9 -99.99 -9.99
2019/11/13 07:48 CST    1.05   1.38    7   51    8  32.0  59.0 1028.1 11.8  1.009 -99.9 -99.99 -9.99
2019/11/13 07:54 CST    1.03   1.44    9   54   11  31.8  59.0 1028.1 11.6  1.009 -99.9 -99.99 -9.99
2019/11/13 08:00 CST    1.02   1.42    9   42   11  31.8  58.8 1027.9 11.5  1.009 -99.9 -99.99 -9.99
2019/11/13 08:06 CST    1.00   1.46    8   50   11  32.4  58.6 1028.0 11.2  1.009 -99.9 -99.99 -9.99
2019/11/13 08:12 CST    0.98   1.46   10   42   11  31.5  58.5 1027.8 11.2  1.009 -99.9 -99.99 -9.99
2019/11/13 08:18 CST    0.97   1.43    9   43   12  32.0  58.8 1027.7 11.2  1.009 -99.9 -99.99 -9.99
2019/11/13 08:24 CST    0.95   1.43    8   46   12  32.2  59.2 1027.6 11.1  1.009 -99.9 -99.99 -9.99
2019/11/13 08:30 CST    0.93   1.44    9   35   11  32.0  59.7 1027.6 11.2  1.009 -99.9 -99.99 -9.99
2019/11/13 08:36 CST    0.91   1.41    9   44   11  32.7  59.5 1027.6 11.2  1.009 -99.9 -99.99 -9.99
2019/11/13 08:42 CST    0.89   1.44    9   57   11  32.9  59.4 1027.6 11.2  1.009 -99.9 -99.99 -9.99
2019/11/13 08:48 CST    0.87   1.39    7   46   10  32.5  59.5 1027.6 11.8  1.009 -99.9 -99.99 -9.99
2019/11/13 08:54 CST    0.85   1.43    6   52    9  32.7  59.5 1027.7 12.0  1.009 -99.9 -99.99 -9.99
2019/11/13 09:00 CST    0.83   1.23    4   34    8  32.9  59.4 1027.6 11.8  1.009 -99.9 -99.99 -9.99
2019/11/13 09:06 CST    0.81   1.32    4   44   10  32.7  59.5 1027.7 12.2  1.009 -99.9 -99.99 -9.99
2019/11/13 09:12 CST    0.79   1.35    6   50    8  33.3  59.7 1027.6 12.3  1.009 -99.9 -99.99 -9.99
2019/11/13 09:18 CST    0.77   1.44    4   40    6  33.6  60.1 1027.7 12.3  1.009 -99.9 -99.99 -9.99
2019/11/13 09:24 CST    0.76   1.36    2  348    5  33.6  59.7 1027.7 12.0  1.009 -99.9 -99.99 -9.99
2019/11/13 09:30 CST    0.74   1.29    5   22    6  34.0  59.9 1027.6 12.1  1.009 -99.9 -99.99 -9.99
2019/11/13 09:36 CST    0.71   1.28    4    6    6  34.2  59.9 1027.7 11.9  1.009 -99.9 -99.99 -9.99
2019/11/13 09:42 CST    0.69   1.33    5   27    7  34.2  59.7 1027.5 11.8  1.009 -99.9 -99.99 -9.99
2019/11/13 09:48 CST    0.67   1.02    3   17    6  34.5  59.5 1027.4 11.7  1.009 -99.9 -99.99 -9.99
2019/11/13 09:54 CST    0.65   1.16    2   10    3  35.2  59.5 1027.3 11.7  1.009 -99.9 -99.99 -9.99
2019/11/13 10:00 CST    0.63   1.04    4   75    5  35.4  59.5 1027.3 11.5  1.009 -99.9 -99.99 -9.99
2019/11/13 10:06 CST    0.61   1.25    1   94    4  36.3  59.7 1027.4 11.6  1.009 -99.9 -99.99 -9.99
2019/11/13 10:12 CST    0.59   1.27    2   69    2  36.3  59.7 1027.4 11.6  1.009 -99.9 -99.99 -9.99
2019/11/13 10:18 CST    0.57   1.20    1   11    1  36.5  60.1 1027.4 11.8  1.009 -99.9 -99.99 -9.99
2019/11/13 10:24 CST    0.55   1.20    1   68    2  37.2  60.3 1027.2 11.8  1.009 -99.9 -99.99 -9.99
2019/11/13 10:30 CST    0.53   1.10    1  149    4  38.5  60.4 1027.0 12.0  1.009 -99.9 -99.99 -9.99
2019/11/13 10:36 CST    0.51   1.00    4   78    5  37.6  60.4 1026.9 12.1  1.009 -99.9 -99.99 -9.99
2019/11/13 10:42 CST    0.49   1.00    2  101    5  37.8  60.3 1026.9 10.7  1.008 -99.9 -99.99 -9.99
2019/11/13 10:48 CST    0.46   1.03    3  138    5  37.4  60.3 1026.9 10.6  1.008 -99.9 -99.99 -9.99
2019/11/13 10:54 CST    0.44   1.09    3   90    4  37.4  60.3 1026.6 10.7  1.008 -99.9 -99.99 -9.99
2019/11/13 11:00 CST    0.42   0.96    3  123    5  37.8  60.1 1026.5 10.9  1.008 -99.9 -99.99 -9.99
2019/11/13 11:06 CST    0.40   0.75    4   89    8  37.8  60.3 1026.4 10.9  1.008 -99.9 -99.99 -9.99
2019/11/13 11:12 CST    0.38   0.93    5  108    7  38.5  60.4 1026.4 10.8  1.008 -99.9 -99.99 -9.99
2019/11/13 11:18 CST    0.36   0.95    5   93    7  38.7  60.4 1026.4 11.0  1.008 -99.9 -99.99 -9.99
2019/11/13 11:24 CST    0.34   0.91    3  111    5  39.6  60.4 1026.4 10.7  1.008 -99.9 -99.99 -9.99
2019/11/13 11:30 CST    0.31   0.93    4  128    6  39.2  60.4 1026.4 11.0  1.008 -99.9 -99.99 -9.99
2019/11/13 11:36 CST    0.29   0.83    5  154    6  39.6  60.4 1026.3 11.0  1.008 -99.9 -99.99 -9.99
2019/11/13 11:42 CST    0.27   0.83    5  167    7  39.4  60.4 1026.3 11.0  1.008 -99.9 -99.99 -9.99
2019/11/13 11:48 CST    0.26   0.86    6  169    8  38.8  60.4 1026.3 11.1  1.008 -99.9 -99.99 -9.99
2019/11/13 11:54 CST    0.24   0.79    7  162    8  38.7  60.4 1026.2 11.1  1.008 -99.9 -99.99 -9.99
2019/11/13 12:00 CST    0.22   0.76    2  151    8  39.2  60.4 1026.0 11.2  1.008 -99.9 -99.99 -9.99
2019/11/13 12:06 CST    0.20   0.78    5  131    7  38.7  60.4 1025.8 12.5  1.009 -99.9 -99.99 -9.99
2019/11/13 12:12 CST    0.18   0.74    4  152    7  39.0  60.4 1025.7 11.9  1.009 -99.9 -99.99 -9.99
2019/11/13 12:18 CST    0.17   0.76    3  143    5  39.4  60.4 1025.5 12.1  1.009 -99.9 -99.99 -9.99
2019/11/13 12:24 CST    0.15   0.71    2  173    5  39.4  60.6 1025.4 12.5  1.009 -99.9 -99.99 -9.99
2019/11/13 12:30 CST    0.14   0.70    4  125    5  39.2  60.6 1025.1 12.5  1.009 -99.9 -99.99 -9.99
2019/11/13 12:36 CST    0.13   0.66    2  165    5  39.6  60.4 1025.0 12.4  1.009 -99.9 -99.99 -9.99
2019/11/13 12:42 CST    0.11   0.60    3  160    4  39.9  60.4 1025.0 12.4  1.009 -99.9 -99.99 -9.99
2019/11/13 12:48 CST    0.10   0.72    3  158    4  40.6  60.4 1024.8 12.3  1.009 -99.9 -99.99 -9.99
2019/11/13 12:54 CST    0.09   0.62    4  122    5  40.3  60.4 1024.7 12.2  1.009 -99.9 -99.99 -9.99
2019/11/13 13:00 CST    0.08   0.58    4  156    5  40.5  60.6 1024.6 12.3  1.009 -99.9 -99.99 -9.99
2019/11/13 13:06 CST    0.07   0.52    3  149    6  40.6  60.6 1024.5 12.4  1.009 -99.9 -99.99 -9.99
2019/11/13 13:12 CST    0.06   0.48    4  123    6  40.8  60.8 1024.4 12.3  1.009 -99.9 -99.99 -9.99
2019/11/13 13:18 CST    0.06   0.62    4  138    6  40.8  60.8 1024.2 11.0  1.008 -99.9 -99.99 -9.99
2019/11/13 13:24 CST    0.05   0.68    3  120    6  40.8  60.8 1024.1 11.0  1.008 -99.9 -99.99 -9.99
2019/11/13 13:30 CST    0.04   0.46    3  150    5  41.0  60.8 1024.0 11.1  1.008 -99.9 -99.99 -9.99
2019/11/13 13:36 CST    0.04   0.53    3  184    4  40.6  60.8 1023.9 11.1  1.008 -99.9 -99.99 -9.99
2019/11/13 13:42 CST    0.03   0.37    2  157    4  41.0  60.8 1023.8 10.9  1.008 -99.9 -99.99 -9.99
2019/11/13 13:48 CST    0.03   0.56    3  132    4  41.5  60.8 1023.8 10.8  1.008 -99.9 -99.99 -9.99
2019/11/13 13:54 CST    0.03   0.55    1  100    4  41.5  60.6 1023.7 10.9  1.008 -99.9 -99.99 -9.99
2019/11/13 14:00 CST    0.02   0.49    2   85    4  41.5  60.8 1023.6 11.0  1.008 -99.9 -99.99 -9.99
2019/11/13 14:06 CST    0.02   0.46    1  185    3  41.9  60.6 1023.7 11.1  1.008 -99.9 -99.99 -9.99
2019/11/13 14:12 CST    0.02   0.47    3  181    4  41.9  60.6 1023.8 11.2  1.008 -99.9 -99.99 -9.99
2019/11/13 14:18 CST    0.02   0.46    2  196    5  41.9  60.6 1023.7 11.0  1.008 -99.9 -99.99 -9.99
2019/11/13 14:24 CST    0.03   0.56    3  167    5  41.9  60.6 1023.8 11.1  1.008 -99.9 -99.99 -9.99
2019/11/13 14:30 CST    0.03   0.50    2  168    3  42.3  60.4 1023.8 11.1  1.008 -99.9 -99.99 -9.99
2019/11/13 14:36 CST    0.03   0.57    3  134    4  42.1  60.3 1023.6 11.5  1.009 -99.9 -99.99 -9.99
2019/11/13 14:42 CST    0.04   0.48    3  111    5  42.1  59.9 1023.5 11.0  1.008 -99.9 -99.99 -9.99
2019/11/13 14:48 CST    0.04   0.55    4  101    6  42.3  60.3 1023.4 10.8  1.008 -99.9 -99.99 -9.99
2019/11/13 14:54 CST    0.05   0.47    4  107    5  42.3  60.3 1023.3 10.9  1.008 -99.9 -99.99 -9.99
2019/11/13 15:00 CST    0.05   0.60    3  106    5  42.6  59.9 1023.3 10.8  1.008 -99.9 -99.99 -9.99
2019/11/13 15:06 CST    0.06   0.59    3  103    5  42.6  59.7 1023.2 10.7  1.008 -99.9 -99.99 -9.99
2019/11/13 15:12 CST    0.07   0.57    3  120    5  42.8  59.4 1023.1 10.7  1.008 -99.9 -99.99 -9.99
2019/11/13 15:18 CST    0.08   0.59    5  111    5  42.6  59.4 1023.1 11.7  1.009 -99.9 -99.99 -9.99
2019/11/13 15:24 CST    0.10   0.63    4  105    5  42.6  59.2 1023.0 10.5  1.008 -99.9 -99.99 -9.99
2019/11/13 15:30 CST    0.11   0.63    5   97    6  42.8  59.0 1022.9 10.5  1.008 -99.9 -99.99 -9.99
2019/11/13 15:36 CST    0.12   0.77    4  102    6  42.8  58.8 1022.8 10.4  1.008 -99.9 -99.99 -9.99
2019/11/13 15:42 CST    0.14   0.72    5  100    6  42.6  58.8 1022.7 10.3  1.008 -99.9 -99.99 -9.99
2019/11/13 15:48 CST    0.16   0.62    4   93    6  43.0  58.6 1022.6 10.3  1.008 -99.9 -99.99 -9.99
2019/11/13 15:54 CST    0.17   0.71    4  104    6  42.8  58.5 1022.4 10.2  1.008 -99.9 -99.99 -9.99
2019/11/13 16:00 CST    0.19   0.79    4  105    5  43.0  58.5 1022.3 10.2  1.008 -99.9 -99.99 -9.99
2019/11/13 16:06 CST    0.21   0.78    4  148    5  43.2  58.5 1022.7 10.3  1.008 -99.9 -99.99 -9.99
2019/11/13 16:12 CST    0.23   0.72    4  125    5  43.3  58.5 1022.6 10.2  1.008 -99.9 -99.99 -9.99
2019/11/13 16:18 CST    0.25   0.86    5   88    6  43.3  58.5 1022.2 10.3  1.008 -99.9 -99.99 -9.99
2019/11/13 16:24 CST    0.27   0.83    3   91    5  43.2  58.5 1022.3 10.4  1.008 -99.9 -99.99 -9.99
2019/11/13 16:30 CST    0.30   0.83    4   98    5  43.3  58.5 1022.3 10.3  1.008 -99.9 -99.99 -9.99
2019/11/13 16:36 CST    0.32   0.91    4   95    5  43.3  58.5 1022.2 10.4  1.008 -99.9 -99.99 -9.99
2019/11/13 16:42 CST    0.34   0.99    4   98    5  43.7  58.6 1022.2 10.6  1.008 -99.9 -99.99 -9.99
2019/11/13 16:48 CST    0.37   1.00    4  117    5  43.5  58.6 1022.3 10.7  1.008 -99.9 -99.99 -9.99
2019/11/13 16:54 CST    0.39   0.98    4  114    5  43.7  58.6 1022.2 10.8  1.008 -99.9 -99.99 -9.99
2019/11/13 17:00 CST    0.42   1.04    5  107    6  43.7  58.6 1022.1 11.2  1.009 -99.9 -99.99 -9.99
2019/11/13 17:06 CST    0.44   1.10    5   95    7  43.7  58.6 1022.0 11.0  1.008 -99.9 -99.99 -9.99
2019/11/13 17:12 CST    0.47   1.11    4   99    6  43.5  58.6 1022.0 11.1  1.009 -99.9 -99.99 -9.99
2019/11/13 17:18 CST    0.49   1.15    5   97    6  43.5  58.8 1021.8 11.1  1.009 -99.9 -99.99 -9.99
2019/11/13 17:24 CST    0.52   1.18    4   87    6  43.9  59.0 1021.8 10.7  1.008 -99.9 -99.99 -9.99
2019/11/13 17:30 CST    0.54   1.21    5   94    6  43.9  58.8 1021.8 11.0  1.008 -99.9 -99.99 -9.99
2019/11/13 17:36 CST    0.57   1.21    5   88    6  43.9  58.8 1021.6 11.1  1.009 -99.9 -99.99 -9.99
2019/11/13 17:42 CST    0.60   1.23    5   86    7  44.1  58.8 1021.7 11.4  1.009 -99.9 -99.99 -9.99
2019/11/13 17:48 CST    0.62   1.29    5   95    6  43.9  58.8 1021.7 11.3  1.009 -99.9 -99.99 -9.99
2019/11/13 17:54 CST    0.65   1.30    6   91    7  44.2  58.8 1021.7 11.1  1.009 -99.9 -99.99 -9.99
2019/11/13 18:00 CST    0.68   1.35    5   84    7  44.2  59.0 1021.8 11.1  1.009 -99.9 -99.99 -9.99
2019/11/13 18:06 CST    0.70   1.48    6   95    7  44.2  59.0 1021.7 11.1  1.009 -99.9 -99.99 -9.99
2019/11/13 18:12 CST    0.73   1.42    5  101    7  44.4  59.2 1022.0 11.3  1.009 -99.9 -99.99 -9.99
2019/11/13 18:18 CST    0.76   1.50    4   96    6  44.2  59.2 1022.1 11.2  1.009 -99.9 -99.99 -9.99
2019/11/13 18:24 CST    0.78   1.41    5   86    6  44.2  59.4 1021.9 11.3  1.009 -99.9 -99.99 -9.99
2019/11/13 18:30 CST    0.81   1.51    4   85    6  44.6  59.4 1021.9 11.4  1.009 -99.9 -99.99 -9.99
2019/11/13 18:36 CST    0.84   1.56    4   80    6  44.4  59.4 1022.0 11.2  1.009 -99.9 -99.99 -9.99
2019/11/13 18:42 CST    0.86   1.55    4   91    6  44.4  59.4 1022.2 11.4  1.009 -99.9 -99.99 -9.99
2019/11/13 18:48 CST    0.89   1.62    3   99    4  44.4  59.4 1022.4 11.5  1.009 -99.9 -99.99 -9.99
2019/11/13 18:54 CST    0.92   1.68    3  111    5  44.4  59.4 1022.5 11.6  1.009 -99.9 -99.99 -9.99
2019/11/13 19:00 CST    0.94   1.66    4  117    5  44.6  59.5 1022.5 11.7  1.009 -99.9 -99.99 -9.99
2019/11/13 19:06 CST    0.97   1.70    3  104    5  44.6  59.5 1022.5 11.5  1.009 -99.9 -99.99 -9.99
2019/11/13 19:12 CST    0.99   1.69    4   92    4  44.8  59.5 1022.6 11.5  1.009 -99.9 -99.99 -9.99
2019/11/13 19:18 CST    1.02   1.73    4   95    5  44.6  59.5 1022.6 11.7  1.009 -99.9 -99.99 -9.99
2019/11/13 19:24 CST    1.04   1.80    4   96    4  44.8  59.7 1022.6 11.9  1.009 -99.9 -99.99 -9.99
2019/11/13 19:30 CST    1.07   1.80    4   94    5  44.8  59.7 1022.7 11.6  1.009 -99.9 -99.99 -9.99
2019/11/13 19:36 CST    1.09   1.83    4  103    4  45.1  59.9 1022.9 11.7  1.009 -99.9 -99.99 -9.99
2019/11/13 19:42 CST    1.12   1.84    4  110    5  45.1  59.9 1022.8 11.7  1.009 -99.9 -99.99 -9.99
2019/11/13 19:48 CST    1.14   1.86    4  106    6  45.3  59.9 1022.7 11.7  1.009 -99.9 -99.99 -9.99
2019/11/13 19:54 CST    1.16   1.88    5   97    7  45.5  59.9 1022.4 11.9  1.009 -99.9 -99.99 -9.99
2019/11/13 20:00 CST    1.18   1.87    4  105    7  45.7  59.9 1022.4 11.8  1.009 -99.9 -99.99 -9.99
2019/11/13 20:06 CST    1.20   1.94    6  107    7  45.5  59.9 1022.3 11.8  1.009 -99.9 -99.99 -9.99
2019/11/13 20:12 CST    1.23   1.96    6  111    7  45.5  60.1 1022.4 11.7  1.009 -99.9 -99.99 -9.99
2019/11/13 20:18 CST    1.25   1.97    6  104    7  45.5  60.1 1022.3 11.8  1.009 -99.9 -99.99 -9.99
2019/11/13 20:24 CST    1.27   2.05    7   95    9  45.3  60.1 1022.2 11.9  1.009 -99.9 -99.99 -9.99
2019/11/13 20:30 CST    1.28   1.61    7  110    8  45.5  60.1 1022.5 11.9  1.009 -99.9 -99.99 -9.99
2019/11/13 20:36 CST    1.30   2.02    6  103    8  45.9  60.1 1022.7 11.6  1.009 -99.9 -99.99 -9.99
2019/11/13 20:42 CST    1.32   1.89    6  105    7  45.7  59.9 1022.8 11.6  1.009 -99.9 -99.99 -9.99
2019/11/13 20:48 CST    1.34   1.99    6   96    7  45.7  59.7 1022.7 11.7  1.009 -99.9 -99.99 -9.99
2019/11/13 20:54 CST    1.36   2.14    7   94    9  45.7  59.7 1022.6 11.8  1.009 -99.9 -99.99 -9.99
2019/11/13 21:00 CST    1.37   2.11    8  100    9  45.7  59.9 1022.7 11.9  1.009 -99.9 -99.99 -9.99
2019/11/13 21:06 CST    1.39   2.06    7  102    9  45.9  60.1 1022.8 11.9  1.009 -99.9 -99.99 -9.99
2019/11/13 21:12 CST    1.40   2.11    5   99    7  45.9  60.1 1022.8 11.9  1.009 -99.9 -99.99 -9.99
2019/11/13 21:18 CST    1.42   2.08    6  110    7  45.9  60.1 1022.8 12.0  1.009 -99.9 -99.99 -9.99
2019/11/13 21:24 CST    1.43   2.12    4  103    6  46.0  60.3 1023.0 12.1  1.009 -99.9 -99.99 -9.99
2019/11/13 21:30 CST    1.44   2.08    5   87    6  45.9  60.3 1022.7 12.2  1.009 -99.9 -99.99 -9.99
2019/11/13 21:36 CST    1.46   2.16    6   89    7  46.2  60.3 1022.5 12.0  1.009 -99.9 -99.99 -9.99
2019/11/13 21:42 CST    1.47   2.12    5   88    7  46.4  60.3 1022.5 12.1  1.009 -99.9 -99.99 -9.99
2019/11/13 21:48 CST    1.48   2.13    6   86    7  46.4  60.3 1022.6 12.0  1.009 -99.9 -99.99 -9.99
2019/11/13 21:54 CST    1.49   2.21    8   93    9  46.4  60.3 1022.5 12.0  1.009 -99.9 -99.99 -9.99
2019/11/13 22:00 CST    1.50   2.26    7   87    9  46.4  60.3 1022.4 12.0  1.009 -99.9 -99.99 -9.99
2019/11/13 22:06 CST    1.51   2.14    7   95   10  46.6  60.1 1022.3 12.1  1.009 -99.9 -99.99 -9.99
2019/11/13 22:12 CST    1.52   2.14    9   87   10  46.8  59.7 1022.2 12.1  1.009 -99.9 -99.99 -9.99
2019/11/13 22:18 CST    1.53   2.07    9   82   11  46.8  59.5 1022.2 12.0  1.009 -99.9 -99.99 -9.99
2019/11/13 22:24 CST    1.54   2.20    8   79   11  46.9  59.4 1022.2 12.1  1.009 -99.9 -99.99 -9.99
2019/11/13 22:30 CST    1.54   2.17    7   82    9  46.4  59.4 1022.4 12.0  1.009 -99.9 -99.99 -9.99
2019/11/13 22:36 CST    1.55   2.21    6   58    8  46.6  59.4 1022.5 12.1  1.009 -99.9 -99.99 -9.99
2019/11/13 22:42 CST    1.55   2.15    6   43    7  46.4  59.4 1022.5 12.1  1.009 -99.9 -99.99 -9.99
2019/11/13 22:48 CST    1.56   2.17    5   66    7  46.6  59.2 1022.4 12.2  1.009 -99.9 -99.99 -9.99
2019/11/13 22:54 CST    1.56   2.17    6   56    7  46.6  59.2 1022.3 12.0  1.009 -99.9 -99.99 -9.99
2019/11/13 23:00 CST    1.57   2.15    6   50    9  46.2  59.2 1022.2 12.0  1.009 -99.9 -99.99 -9.99
2019/11/13 23:06 CST    1.57   2.16    6   46    8  46.4  59.2 1022.2 12.0  1.009 -99.9 -99.99 -9.99
2019/11/13 23:12 CST    1.57   2.18    7   61    9  46.6  59.2 1022.2 12.1  1.009 -99.9 -99.99 -9.99
2019/11/13 23:18 CST    1.57   2.08    7   68    8  46.2  59.2 1022.3 12.2  1.009 -99.9 -99.99 -9.99
2019/11/13 23:24 CST    1.57   2.15    6   74    8  46.6  59.2 1022.3 12.2  1.009 -99.9 -99.99 -9.99
2019/11/13 23:30 CST    1.57   2.08    8   76    9  46.6  59.2 1022.2 12.2  1.009 -99.9 -99.99 -9.99
2019/11/13 23:36 CST    1.57   2.14    7   73    9  46.8  59.2 1022.2 12.1  1.009 -99.9 -99.99 -9.99
2019/11/13 23:42 CST    1.57   2.17    8   69   10  46.8  59.2 1021.8 12.1  1.009 -99.9 -99.99 -9.99
2019/11/13 23:48 CST    1.56   2.12    8   70   10  46.8  59.0 1021.9 12.0  1.009 -99.9 -99.99 -9.99
2019/11/13 23:54 CST    1.56   2.12    9   63   11  46.8  58.8 1021.9 12.1  1.009 -99.9 -99.99 -9.99
2019/11/14 00:00 CST    1.56   2.14    9   63   12  46.8  58.6 1021.9 12.0  1.009 -99.9 -99.99 -9.99
2019/11/14 00:06 CST    1.56   2.13   11   58   13  46.8  58.5 1021.7 11.8  1.009 -99.9 -99.99 -9.99
2019/11/14 00:12 CST    1.55   2.13   10   58   12  46.8  58.5 1021.9 11.7  1.009 -99.9 -99.99 -9.99
2019/11/14 00:18 CST    1.55   2.11   10   49   12  46.6  58.3 1021.9 11.8  1.009 -99.9 -99.99 -9.99
2019/11/14 00:24 CST    1.55   2.12   10   46   12  46.6  58.3 1022.1 11.7  1.009 -99.9 -99.99 -9.99
2019/11/14 00:30 CST    1.54   2.11   10   42   11  46.4  58.3 1021.9 11.7  1.009 -99.9 -99.99 -9.99
2019/11/14 00:36 CST    1.54   2.10   10   47   12  46.6  58.3 1021.8 11.7  1.009 -99.9 -99.99 -9.99
2019/11/14 00:42 CST    1.54   2.09    9   45   11  46.4  58.3 1021.8 11.6  1.009 -99.9 -99.99 -9.99
2019/11/14 00:48 CST    1.53   2.10    9   46   10  46.6  58.3 1021.9 11.7  1.009 -99.9 -99.99 -9.99
2019/11/14 00:54 CST    1.53   2.12    9   50   11  46.4  58.3 1021.7 11.6  1.009 -99.9 -99.99 -9.99
2019/11/14 01:00 CST    1.53   2.11   10   62   12  46.6  58.3 1021.9 11.7  1.009 -99.9 -99.99 -9.99
2019/11/14 01:06 CST    1.52   2.09   10   61   12  46.8  58.3 1021.9 11.7  1.009 -99.9 -99.99 -9.99
2019/11/14 01:12 CST    1.52   2.10    8   57   11  46.8  58.3 1022.1 11.7  1.009 -99.9 -99.99 -9.99
2019/11/14 01:18 CST    1.52   2.09    9   51   11  46.6  58.3 1022.0 11.7  1.009 -99.9 -99.99 -9.99
2019/11/14 01:24 CST    1.51   2.08    9   42   11  46.4  58.3 1021.8 11.8  1.009 -99.9 -99.99 -9.99
2019/11/14 01:30 CST    1.51   2.09    8   50   11  46.4  58.3 1021.9 12.0  1.009 -99.9 -99.99 -9.99
2019/11/14 01:36 CST    1.50   2.10    9   47   11  46.0  58.3 1022.0 11.9  1.009 -99.9 -99.99 -9.99
2019/11/14 01:42 CST    1.50   2.14    8   53   12  46.2  58.3 1022.1 11.8  1.009 -99.9 -99.99 -9.99
2019/11/14 01:48 CST    1.50   2.06    8   55   11  46.0  58.3 1022.0 11.5  1.009 -99.9 -99.99 -9.99
2019/11/14 01:54 CST    1.49   2.09    8   51   10  46.2  58.3 1021.9 11.6  1.009 -99.9 -99.99 -9.99
2019/11/14 02:00 CST    1.49   2.07    7   64   10  46.2  58.3 1021.8 11.6  1.009 -99.9 -99.99 -9.99
2019/11/14 02:06 CST    1.48   2.09    9   59   10  46.2  58.3 1021.7 11.6  1.009 -99.9 -99.99 -9.99
2019/11/14 02:12 CST    1.48   2.08    9   66   11  46.4  58.3 1021.7 11.6  1.009 -99.9 -99.99 -9.99
2019/11/14 02:18 CST    1.48   2.03    9   70   11  46.4  58.3 1021.6 11.6  1.009 -99.9 -99.99 -9.99
2019/11/14 02:24 CST    1.47   2.03   10   67   11  46.4  58.3 1021.5 11.5  1.009 -99.9 -99.99 -9.99
2019/11/14 02:30 CST    1.47   2.04    9   67   12  46.6  58.3 1021.5 11.6  1.009 -99.9 -99.99 -9.99
2019/11/14 02:36 CST    1.46   2.02    8   71   10  46.6  58.3 1021.5 11.6  1.009 -99.9 -99.99 -9.99
2019/11/14 02:42 CST    1.45   2.11    9   68   10  46.6  58.3 1021.4 11.6  1.009 -99.9 -99.99 -9.99
2019/11/14 02:48 CST    1.45   2.01    8   63   12  46.8  58.3 1021.4 11.7  1.009 -99.9 -99.99 -9.99
2019/11/14 02:54 CST    1.44   2.05    9   62   12  46.9  58.3 1021.4 11.7  1.009 -99.9 -99.99 -9.99
2019/11/14 03:00 CST    1.44   2.02   11   57   12  46.6  58.3 1021.3 11.7  1.009 -99.9 -99.99 -9.99
2019/11/14 03:06 CST    1.43   2.01    9   57   12  46.8  58.5 1021.3 11.7  1.009 -99.9 -99.99 -9.99
2019/11/14 03:12 CST    1.43   2.01    9   57   11  46.9  58.5 1021.3 11.8  1.009 -99.9 -99.99 -9.99
2019/11/14 03:18 CST    1.42   1.96    8   48   11  46.9  58.5 1021.2 11.6  1.009 -99.9 -99.99 -9.99
2019/11/14 03:24 CST    1.42   1.89    8   45   10  46.9  58.5 1021.4 11.6  1.009 -99.9 -99.99 -9.99
2019/11/14 03:30 CST    1.41   1.94    8   41    9  46.8  58.6 1021.4 11.6  1.009 -99.9 -99.99 -9.99
2019/11/14 03:36 CST    1.41   1.92    7   46   10  46.9  58.6 1021.4 11.8  1.009 -99.9 -99.99 -9.99
2019/11/14 03:42 CST    1.40   1.94    7   50    9  46.9  58.6 1021.4 11.8  1.009 -99.9 -99.99 -9.99
2019/11/14 03:48 CST    1.40   1.96    7   60    8  46.9  58.8 1021.4 11.7  1.009 -99.9 -99.99 -9.99
2019/11/14 03:54 CST    1.40   1.96    8   66   10  47.1  58.8 1021.3 11.5  1.009 -99.9 -99.99 -9.99
2019/11/14 04:00 CST    1.39   1.96    9   52   11  47.1  59.0 1021.1 11.5  1.009 -99.9 -99.99 -9.99
2019/11/14 04:06 CST    1.39   1.96   10   46   11  46.9  59.0 1020.9 11.6  1.009 -99.9 -99.99 -9.99
2019/11/14 04:12 CST    1.39   1.99    8   50   11  46.9  59.0 1021.1 11.9  1.009 -99.9 -99.99 -9.99
2019/11/14 04:18 CST    1.38   1.99    7   54    9  46.9  58.8 1021.3 11.9  1.009 -99.9 -99.99 -9.99
2019/11/14 04:24 CST    1.38   2.01    7   59    8  47.1  58.8 1021.4 11.9  1.009 -99.9 -99.99 -9.99
2019/11/14 04:30 CST    1.38   1.98    7   52    9  46.9  58.8 1021.4 11.5  1.009 -99.9 -99.99 -9.99
2019/11/14 04:36 CST    1.38   2.10    7   51    9  46.9  58.6 1021.5 11.4  1.009 -99.9 -99.99 -9.99
2019/11/14 04:42 CST    1.37   1.94    8   56    9  47.3  58.6 1021.4 11.5  1.009 -99.9 -99.99 -9.99
2019/11/14 04:48 CST    1.37   1.98    6   64   10  47.3  58.5 1021.3 11.5  1.009 -99.9 -99.99 -9.99
2019/11/14 04:54 CST    1.37   1.95    8   52   10  47.1  58.3 1021.4 11.2  1.009 -99.9 -99.99 -9.99
2019/11/14 05:00 CST    1.36   2.04    6   55   10  47.1  58.3 1021.5 11.2  1.009 -99.9 -99.99 -9.99
2019/11/14 05:06 CST    1.36   1.91    9   61   10  47.5  58.3 1021.6 11.3  1.009 -99.9 -99.99 -9.99
2019/11/14 05:12 CST    1.36   1.96   10   59   11  47.1  58.1 1021.5 11.1  1.009 -99.9 -99.99 -9.99
2019/11/14 05:18 CST    1.35   1.89    9   48   11  47.1  58.1 1021.6 11.3  1.009 -99.9 -99.99 -9.99
2019/11/14 05:24 CST    1.35   1.99    9   45   10  46.9  58.1 1021.6 11.5  1.009 -99.9 -99.99 -9.99
2019/11/14 05:30 CST    1.34   1.97    9   45   11  47.1  58.1 1021.6 11.2  1.009 -99.9 -99.99 -9.99
2019/11/14 05:36 CST    1.34   2.01    9   44   11  46.8  57.9 1021.9 11.3  1.009 -99.9 -99.99 -9.99
2019/11/14 05:42 CST    1.33   1.89    9   49   11  46.9  57.9 1022.0 11.3  1.009 -99.9 -99.99 -9.99
2019/11/14 05:48 CST    1.33   1.94    8   47   10  47.1  57.9 1022.1 11.7  1.009 -99.9 -99.99 -9.99
2019/11/14 05:54 CST    1.32   1.91    8   47   10  47.1  58.1 1022.2 11.7  1.009 -99.9 -99.99 -9.99
2019/11/14 06:00 CST    1.31   1.86    8   44   10  47.1  58.1 1022.3 11.9  1.009 -99.9 -99.99 -9.99
2019/11/14 06:06 CST    1.30   1.88    7   36   10  47.1  58.1 1022.4 12.1  1.009 -99.9 -99.99 -9.99
2019/11/14 06:12 CST    1.30   1.88    8   44   11  47.1  58.6 1022.4 11.5  1.009 -99.9 -99.99 -9.99
2019/11/14 06:18 CST    1.29   1.87    8   38   11  46.9  58.5 1022.5 11.3  1.009 -99.9 -99.99 -9.99
2019/11/14 06:24 CST    1.28   1.83    7   52   10  47.1  58.3 1022.6 11.3  1.009 -99.9 -99.99 -9.99
2019/11/14 06:30 CST    1.27   1.78    9   44   11  47.1  58.1 1022.6 11.3  1.009 -99.9 -99.99 -9.99
2019/11/14 06:36 CST    1.26   1.79   10   44   12  46.8  58.1 1022.6 11.3  1.009 -99.9 -99.99 -9.99
2019/11/14 06:42 CST    1.25   1.65    6   50   10  46.9  58.1 1023.0 11.3  1.009 -99.9 -99.99 -9.99
2019/11/14 06:48 CST    1.24   1.82    8   44   11  46.6  58.1 1023.2 11.3  1.009 -99.9 -99.99 -9.99
2019/11/14 06:54 CST    1.23   1.72    7   52    9  46.4  57.9 1023.3 11.2  1.009 -99.9 -99.99 -9.99
2019/11/14 07:00 CST    1.21   1.72    8   47   11  46.0  57.9 1023.4 11.2  1.009 -99.9 -99.99 -9.99
2019/11/14 07:06 CST    1.20   1.79    9   51   10  46.0  57.9 1023.4 11.1  1.009 -99.9 -99.99 -9.99
2019/11/14 07:12 CST    1.19   1.75   11   47   13  45.5  57.9 1023.2 11.3  1.009 -99.9 -99.99 -9.99
2019/11/14 07:18 CST    1.18   1.73   10   47   12  45.3  57.9 1023.2 11.1  1.009 -99.9 -99.99 -9.99
2019/11/14 07:24 CST    1.16   1.74    9   46   11  45.5  57.7 1023.3 11.1  1.009 -99.9 -99.99 -9.99
2019/11/14 07:30 CST    1.15   1.73   10   39   12  44.8  57.7 1023.4 11.1  1.009 -99.9 -99.99 -9.99
2019/11/14 07:36 CST    1.14   1.74   11   42   12  45.0  57.7 1023.4 11.0  1.009 -99.9 -99.99 -9.99
2019/11/14 07:42 CST    1.12   1.66   11   45   15  44.8  57.7 1023.3 11.0  1.009 -99.9 -99.99 -9.99
2019/11/14 07:48 CST    1.11   1.71   12   51   14  45.0  57.7 1023.5 10.9  1.009 -99.9 -99.99 -9.99
2019/11/14 07:54 CST    1.09   1.74   11   51   13  44.6  57.7 1023.6 11.0  1.009 -99.9 -99.99 -9.99
2019/11/14 08:00 CST    1.08   1.54   11   47   13  44.4  57.7 1023.8 11.0  1.009 -99.9 -99.99 -9.99
2019/11/14 08:06 CST    1.06   1.64   11   42   14  44.2  57.7 1023.9 11.0  1.009 -99.9 -99.99 -9.99
2019/11/14 08:12 CST    1.05   1.50   11   43   14  44.1  57.7 1023.9 10.9  1.008 -99.9 -99.99 -9.99
2019/11/14 08:18 CST    1.03   1.58   12   43   15  44.2  57.7 1023.7 10.9  1.009 -99.9 -99.99 -9.99
2019/11/14 08:24 CST    1.01   1.64   12   43   15  43.9  57.7 1023.6 10.9  1.009 -99.9 -99.99 -9.99
2019/11/14 08:30 CST    1.00   1.66   13   44   15  43.9  57.7 1023.6 10.8  1.008 -99.9 -99.99 -9.99
2019/11/14 08:36 CST    0.98   1.57   12   45   15  43.7  57.7 1023.6 10.9  1.009 -99.9 -99.99 -9.99
2019/11/14 08:42 CST    0.96   1.58   14   45   16  43.7  57.7 1023.6 10.9  1.008 -99.9 -99.99 -9.99
2019/11/14 08:48 CST    0.94   1.45   12   45   16  43.9  57.7 1023.7 10.8  1.008 -99.9 -99.99 -9.99
2019/11/14 08:54 CST    0.92   1.65   10   38   15  43.7  57.6 1023.7 10.8  1.008 -99.9 -99.99 -9.99
2019/11/14 09:00 CST    0.90   1.48   12   42   15  43.5  57.7 1023.7 10.7  1.008 -99.9 -99.99 -9.99
2019/11/14 09:06 CST    0.88   1.58   12   39   14  43.5  57.6 1023.8 10.8  1.008 -99.9 -99.99 -9.99
2019/11/14 09:12 CST    0.87   1.58   12   42   15  43.7  57.6 1023.8 10.9  1.008 -99.9 -99.99 -9.99
2019/11/14 09:18 CST    0.85   1.43   10   41   14  43.7  57.6 1024.0 10.8  1.008 -99.9 -99.99 -9.99
2019/11/14 09:24 CST    0.83   1.45   10   42   13  44.1  57.6 1024.2 10.8  1.008 -99.9 -99.99 -9.99
2019/11/14 09:30 CST    0.80   1.40   10   46   12  43.9  57.6 1024.2 10.8  1.008 -99.9 -99.99 -9.99
2019/11/14 09:36 CST    0.78   1.49   10   46   14  43.7  57.6 1024.3 10.9  1.009 -99.9 -99.99 -9.99
2019/11/14 09:42 CST    0.76   1.36   10   46   12  43.9  57.6 1024.5 10.8  1.008 -99.9 -99.99 -9.99
2019/11/14 09:48 CST    0.74   1.37   11   49   13  43.9  57.6 1024.6 10.9  1.009 -99.9 -99.99 -9.99
2019/11/14 09:54 CST    0.72   1.34   12   54   14  43.7  57.6 1024.7 10.9  1.008 -99.9 -99.99 -9.99
2019/11/14 10:00 CST    0.70   1.43   10   55   12  44.1  57.6 1024.8 10.9  1.008 -99.9 -99.99 -9.99
2019/11/14 10:06 CST    0.68   1.35    7   45   11  44.2  57.6 1025.0 10.9  1.009 -99.9 -99.99 -9.99
2019/11/14 10:12 CST    0.66   1.32   10   38   13  44.1  57.6 1024.9 10.7  1.008 -99.9 -99.99 -9.99
2019/11/14 10:18 CST    0.64   1.29    9   41   12  43.9  57.6 1025.0 10.8  1.008 -99.9 -99.99 -9.99
2019/11/14 10:24 CST    0.62   1.23   10   34   12  44.1  57.6 1025.1 10.7  1.008 -99.9 -99.99 -9.99
2019/11/14 10:30 CST    0.59   1.22   10   35   13  44.4  57.6 1024.9 10.8  1.008 -99.9 -99.99 -9.99
2019/11/14 10:36 CST    0.57   1.16   11   33   12  44.1  57.6 1024.7 10.8  1.008 -99.9 -99.99 -9.99
2019/11/14 10:42 CST    0.55   1.16   10   38   12  44.1  57.6 1024.8 11.0  1.009 -99.9 -99.99 -9.99
2019/11/14 10:48 CST    0.53   1.15   11   43   15  44.1  57.6 1024.9 10.9  1.009 -99.9 -99.99 -9.99
2019/11/14 10:54 CST    0.51   1.08    9   29   11  44.2  57.6 1024.9 10.9  1.008 -99.9 -99.99 -9.99
2019/11/14 11:00 CST    0.48   1.01    8   33   11  44.4  57.6 1024.9 10.7  1.008 -99.9 -99.99 -9.99
2019/11/14 11:06 CST    0.46   0.98   14   45   18  44.1  57.7 1024.7 10.7  1.008 -99.9 -99.99 -9.99
2019/11/14 11:12 CST    0.44   0.99   12   24   15  44.2  57.7 1024.8 10.5  1.008 -99.9 -99.99 -9.99
2019/11/14 11:18 CST    0.42   0.87   11   39   14  43.9  57.7 1024.6 10.6  1.008 -99.9 -99.99 -9.99
2019/11/14 11:24 CST    0.39   0.97   13   38   16  43.9  57.7 1024.6 10.5  1.008 -99.9 -99.99 -9.99
2019/11/14 11:30 CST    0.37   0.90   11   36   15  43.7  57.7 1024.6 10.5  1.008 -99.9 -99.99 -9.99
2019/11/14 11:36 CST    0.35   0.86   11   30   14  43.7  57.7 1024.6 10.6  1.008 -99.9 -99.99 -9.99
2019/11/14 11:42 CST    0.33   0.86   11   22   13  43.9  57.7 1024.6 10.6  1.008 -99.9 -99.99 -9.99
2019/11/14 11:48 CST    0.31   0.91   10   35   13  43.9  57.7 1024.6 10.5  1.008 -99.9 -99.99 -9.99
2019/11/14 11:54 CST    0.28   0.87    8   29   11  43.7  57.7 1024.5 10.5  1.008 -99.9 -99.99 -9.99
2019/11/14 12:00 CST    0.26   0.84    7   33    9  43.7  57.7 1024.5 10.5  1.008 -99.9 -99.99 -9.99
2019/11/14 12:06 CST    0.24   0.91    9   25   11  43.7  57.7 1024.3 10.4  1.008 -99.9 -99.99 -9.99
2019/11/14 12:12 CST    0.22   0.84   10   30   12  44.2  57.7 1024.4 10.5  1.008 -99.9 -99.99 -9.99
2019/11/14 12:18 CST    0.20   0.89    9   26   11  43.7  57.7 1024.4 10.4  1.008 -99.9 -99.99 -9.99
2019/11/14 12:24 CST    0.18   0.85    7   37   11  44.2  57.9 1024.3 10.5  1.008 -99.9 -99.99 -9.99
2019/11/14 12:30 CST    0.16   0.81   10   49   12  44.2  57.7 1024.2 10.6  1.008 -99.9 -99.99 -9.99
2019/11/14 12:36 CST    0.15   0.83    8   10   12  44.1  57.7 1024.2 10.5  1.008 -99.9 -99.99 -9.99
2019/11/14 12:42 CST    0.13   0.92    7   24    9  44.2  57.7 1024.2 10.5  1.008 -99.9 -99.99 -9.99
2019/11/14 12:48 CST    0.11   0.81    8   20    9  44.4  57.7 1024.1 10.6  1.008 -99.9 -99.99 -9.99
2019/11/14 12:54 CST    0.10   0.82   10   22   11  44.4  57.7 1024.0 10.5  1.008 -99.9 -99.99 -9.99
2019/11/14 13:00 CST    0.08   0.82    9   23   11  44.6  57.7 1023.9 11.1  1.009 -99.9 -99.99 -9.99
2019/11/14 13:06 CST    0.07   0.75    9   31   12  44.4  57.7 1023.9 11.3  1.009 -99.9 -99.99 -9.99
2019/11/14 13:12 CST    0.05   0.73    7   12   10  44.8  57.7 1023.9 11.2  1.009 -99.9 -99.99 -9.99
2019/11/14 13:18 CST    0.04   0.71    7   14   10  44.6  57.7 1024.0 11.2  1.009 -99.9 -99.99 -9.99
2019/11/14 13:24 CST    0.03   0.66    7   42    9  44.6  57.7 1024.0 11.2  1.009 -99.9 -99.99 -9.99
2019/11/14 13:30 CST    0.02   0.70    7   27    9  44.8  57.7 1024.1 11.2  1.009 -99.9 -99.99 -9.99
2019/11/14 13:36 CST    0.01   0.68    6   30    8  45.0  57.7 1024.0 11.2  1.009 -99.9 -99.99 -9.99
2019/11/14 13:42 CST    0.00   0.60    7   21   10  45.0  57.7 1024.0 11.3  1.009 -99.9 -99.99 -9.99
2019/11/14 13:48 CST   -0.01   0.58    4   25    9  45.0  57.7 1023.9 11.4  1.009 -99.9 -99.99 -9.99
2019/11/14 13:54 CST   -0.01   0.62    8   17   10  45.1  57.7 1024.0 11.1  1.009 -99.9 -99.99 -9.99
2019/11/14 14:00 CST   -0.02   0.55    7   31   11  45.0  57.7 1024.0 11.0  1.009 -99.9 -99.99 -9.99
2019/11/14 14:06 CST   -0.03   0.56    8   37    9  45.1  57.6 1024.0 11.0  1.009 -99.9 -99.99 -9.99
2019/11/14 14:12 CST   -0.03   0.52    8   31    9  45.1  57.6 1023.9 11.0  1.009 -99.9 -99.99 -9.99
2019/11/14 14:18 CST   -0.03   0.51    9   33   10  45.5  57.6 1023.7 11.1  1.009 -99.9 -99.99 -9.99
2019/11/14 14:24 CST   -0.04   0.52    8   40   10  45.9  57.7 1023.8 11.0  1.009 -99.9 -99.99 -9.99
2019/11/14 14:30 CST   -0.04   0.32    7   37   10  45.7  57.7 1023.9 11.1  1.009 -99.9 -99.99 -9.99
2019/11/14 14:36 CST   -0.04   0.40    7   36    9  45.9  57.7 1023.7 11.1  1.009 -99.9 -99.99 -9.99
2019/11/14 14:42 CST   -0.04   0.41    9   26   11  45.9  57.7 1023.6 11.1  1.009 -99.9 -99.99 -9.99
2019/11/14 14:48 CST   -0.04   0.38    8   21   12  46.4  57.9 1023.5 11.0  1.009 -99.9 -99.99 -9.99
2019/11/14 14:54 CST   -0.04   0.42   10    5   12  46.0  57.9 1023.4 11.0  1.009 -99.9 -99.99 -9.99
2019/11/14 15:00 CST   -0.04   0.38    8    6   11  46.4  57.9 1023.6 11.0  1.009 -99.9 -99.99 -9.99
2019/11/14 15:06 CST   -0.04   0.35    9    2   12  46.2  57.9 1023.7 11.1  1.009 -99.9 -99.99 -9.99
2019/11/14 15:12 CST   -0.04   0.46    8  357   10  46.6  57.9 1024.0 11.0  1.009 -99.9 -99.99 -9.99
2019/11/14 15:18 CST   -0.03 -99.99 -999 -999 -999 -99.9 -99.9 -999.9 -9.9 -9.999 -99.9 -99.99 -9.99
2019/11/14 15:24 CST   -0.03 -99.99 -999 -999 -999 -99.9 -99.9 -999.9 -9.9 -9.999 -99.9 -99.99 -9.99
2019/11/14 15:30 CST   -0.02 -99.99 -999 -999 -999 -99.9 -99.9 -999.9 -9.9 -9.999 -99.9 -99.99 -9.99